PWSweather.com
Personal Weather Stations
Station Observations
KMNHANSK2
Andys Live Weather Stations, Hanska, MN 56041

Andys Live Weather StationsHanska, MN 56041

Lat: 44.170119, Lon: -94.381619

Elevation: 1004

Station Type: Davis Instruments Vantage Pro2 Plus

http://www.madeliasliveweather.com/thompsonfarms/

Latest ConditionsUpdated 9:28:01 AM CDT Saturday, Oct 25, 2014
Currently Today's Max Today's Min Today's Average
Temperature 53.2°F11.8°C 56.7°F13.7°C 47.6°F8.7°C 51.8°F11.0°C
Dew Point 41.8°F5.4°C 45.5°F7.5°C 39.4°F4.1°C 42.2°F5.7°C
Winds 9.0 mph WNW14.5 kmh WNW 12.0 mph NW19.3 kmh NW - 5.4 mph 8.7 kmh
Wind Gusts 12.0 mph19.3 kmh 12.0 mph19.3 kmh - -
Humidity 65% 75% 65% 70%
Pressure 30.08 in1018.6 mb 30.08 in1018.6 mb 29.93 in1013.5 mb -
Hour Temp Dew Point Humidity Winds Wind Gusts Pressure Precip Precip Rate Daily Precip Total
09:28 AM 53.2°F11.8°C 41.8°F5.4°C 65% 9.0 mph WNW14.5 kmh WNW 12.0 mph19.3 kmh 30.08 in1018.6 mb 0.00 in0.0 mm 0.00 in/hr0.0 mm/hr 0.00 in0.0 mm
09:27 AM 53.1°F11.7°C 41.7°F5.4°C 65% 9.0 mph NW14.5 kmh NW 12.0 mph19.3 kmh 30.08 in1018.6 mb 0.00 in0.0 mm 0.00 in/hr0.0 mm/hr 0.00 in0.0 mm
09:26 AM 53.0°F11.7°C 42.0°F5.6°C 66% 10.0 mph NW16.1 kmh NW 11.0 mph17.7 kmh 30.08 in1018.6 mb 0.00 in0.0 mm 0.00 in/hr0.0 mm/hr 0.00 in0.0 mm
09:25 AM 52.9°F11.6°C 41.5°F5.3°C 65% 10.0 mph WNW16.1 kmh WNW 11.0 mph17.7 kmh 30.08 in1018.6 mb 0.00 in0.0 mm 0.00 in/hr0.0 mm/hr 0.00 in0.0 mm
09:24 AM 52.8°F11.6°C 41.8°F5.4°C 66% 11.0 mph NW17.7 kmh NW 11.0 mph17.7 kmh 30.08 in1018.6 mb 0.00 in0.0 mm 0.00 in/hr0.0 mm/hr 0.00 in0.0 mm
09:23 AM 52.8°F11.6°C 41.8°F5.4°C 66% 9.0 mph NW14.5 kmh NW 11.0 mph17.7 kmh 30.08 in1018.6 mb 0.00 in0.0 mm 0.00 in/hr0.0 mm/hr 0.00 in0.0 mm
09:22 AM 52.6°F11.4°C 42.0°F5.6°C 67% 9.0 mph NW14.5 kmh NW 11.0 mph17.7 kmh 30.08 in1018.6 mb 0.00 in0.0 mm 0.00 in/hr0.0 mm/hr 0.00 in0.0 mm
09:21 AM 52.6°F11.4°C 42.0°F5.6°C 67% 10.0 mph WNW16.1 kmh WNW 11.0 mph17.7 kmh 30.08 in1018.6 mb 0.00 in0.0 mm 0.00 in/hr0.0 mm/hr 0.00 in0.0 mm
09:20 AM 52.4°F11.3°C 41.8°F5.4°C 67% 8.0 mph WNW12.9 kmh WNW 11.0 mph17.7 kmh 30.08 in1018.6 mb 0.00 in0.0 mm 0.00 in/hr0.0 mm/hr 0.00 in0.0 mm
09:19 AM 52.3°F11.3°C 42.1°F5.6°C 68% 7.0 mph NW11.3 kmh NW 11.0 mph17.7 kmh 30.08 in1018.6 mb 0.00 in0.0 mm 0.00 in/hr0.0 mm/hr 0.00 in0.0 mm
09:18 AM 52.2°F11.2°C 42.0°F5.6°C 68% 9.0 mph NW14.5 kmh NW 11.0 mph17.7 kmh 30.08 in1018.6 mb 0.00 in0.0 mm 0.00 in/hr0.0 mm/hr 0.00 in0.0 mm
09:17 AM 52.1°F11.2°C 41.9°F5.5°C 68% 7.0 mph NW11.3 kmh NW 11.0 mph17.7 kmh 30.08 in1018.6 mb 0.00 in0.0 mm 0.00 in/hr0.0 mm/hr 0.00 in0.0 mm
09:16 AM 52.0°F11.1°C 41.8°F5.4°C 68% 9.0 mph NW14.5 kmh NW 11.0 mph17.7 kmh 30.07 in1018.3 mb 0.00 in0.0 mm 0.00 in/hr0.0 mm/hr 0.00 in0.0 mm
09:15 AM 51.9°F11.1°C 42.1°F5.6°C 69% 7.0 mph WNW11.3 kmh WNW 11.0 mph17.7 kmh 30.07 in1018.3 mb 0.00 in0.0 mm 0.00 in/hr0.0 mm/hr 0.00 in0.0 mm
09:14 AM 51.9°F11.1°C 41.7°F5.4°C 68% 7.0 mph WNW11.3 kmh WNW 11.0 mph17.7 kmh 30.07 in1018.3 mb 0.00 in0.0 mm 0.00 in/hr0.0 mm/hr 0.00 in0.0 mm
09:13 AM 51.7°F10.9°C 41.9°F5.5°C 69% 10.0 mph WNW16.1 kmh WNW 11.0 mph17.7 kmh 30.07 in1018.3 mb 0.00 in0.0 mm 0.00 in/hr0.0 mm/hr 0.00 in0.0 mm
09:12 AM 51.7°F10.9°C 41.9°F5.5°C 69% 7.0 mph WNW11.3 kmh WNW 11.0 mph17.7 kmh 30.07 in1018.3 mb 0.00 in0.0 mm 0.00 in/hr0.0 mm/hr 0.00 in0.0 mm
09:11 AM 51.5°F10.8°C 41.7°F5.4°C 69% 11.0 mph WNW17.7 kmh WNW 11.0 mph17.7 kmh 30.07 in1018.3 mb 0.00 in0.0 mm 0.00 in/hr0.0 mm/hr 0.00 in0.0 mm
09:10 AM 51.5°F10.8°C 41.7°F5.4°C 69% 9.0 mph NW14.5 kmh NW 11.0 mph17.7 kmh 30.07 in1018.3 mb 0.00 in0.0 mm 0.00 in/hr0.0 mm/hr 0.00 in0.0 mm
09:09 AM 51.4°F10.8°C 42.0°F5.6°C 70% 9.0 mph WNW14.5 kmh WNW 11.0 mph17.7 kmh 30.07 in1018.3 mb 0.00 in0.0 mm 0.00 in/hr0.0 mm/hr 0.00 in0.0 mm
09:08 AM 51.3°F10.7°C 41.9°F5.5°C 70% 8.0 mph NW12.9 kmh NW 10.0 mph16.1 kmh 30.07 in1018.3 mb 0.00 in0.0 mm 0.00 in/hr0.0 mm/hr 0.00 in0.0 mm
09:07 AM 51.2°F10.7°C 41.8°F5.4°C 70% 5.0 mph W8.0 kmh W 10.0 mph16.1 kmh 30.07 in1018.3 mb 0.00 in0.0 mm 0.00 in/hr0.0 mm/hr 0.00 in0.0 mm
09:06 AM 51.2°F10.7°C 41.4°F5.2°C 69% 8.0 mph WNW12.9 kmh WNW 10.0 mph16.1 kmh 30.07 in1018.3 mb 0.00 in0.0 mm 0.00 in/hr0.0 mm/hr 0.00 in0.0 mm
09:05 AM 51.1°F10.6°C 41.7°F5.4°C 70% 8.0 mph WNW12.9 kmh WNW 9.0 mph14.5 kmh 30.07 in1018.3 mb 0.00 in0.0 mm 0.00 in/hr0.0 mm/hr 0.00 in0.0 mm
09:04 AM 51.0°F10.6°C 41.6°F5.3°C 70% 5.0 mph W8.0 kmh W 9.0 mph14.5 kmh 30.07 in1018.3 mb 0.00 in0.0 mm 0.00 in/hr0.0 mm/hr 0.00 in0.0 mm
09:03 AM 51.0°F10.6°C 41.6°F5.3°C 70% 6.0 mph WNW9.7 kmh WNW 9.0 mph14.5 kmh 30.07 in1018.3 mb 0.00 in0.0 mm 0.00 in/hr0.0 mm/hr 0.00 in0.0 mm
09:02 AM 50.9°F10.5°C 41.8°F5.4°C 71% 6.0 mph WNW9.7 kmh WNW 8.0 mph12.9 kmh 30.07 in1018.3 mb 0.00 in0.0 mm 0.00 in/hr0.0 mm/hr 0.00 in0.0 mm
09:01 AM 50.9°F10.5°C 41.8°F5.4°C 71% 8.0 mph WNW12.9 kmh WNW 10.0 mph16.1 kmh 30.07 in1018.3 mb 0.00 in0.0 mm 0.00 in/hr0.0 mm/hr 0.00 in0.0 mm
09:00 AM 50.8°F10.4°C 41.8°F5.4°C 71% 5.0 mph WNW8.0 kmh WNW 10.0 mph16.1 kmh 30.07 in1018.3 mb 0.00 in0.0 mm 0.00 in/hr0.0 mm/hr 0.00 in0.0 mm
08:59 AM 50.8°F10.4°C 41.4°F5.2°C 70% 4.0 mph WNW6.4 kmh WNW 10.0 mph16.1 kmh 30.07 in1018.3 mb 0.00 in0.0 mm 0.00 in/hr0.0 mm/hr 0.00 in0.0 mm
08:58 AM 50.6°F10.3°C 41.2°F5.1°C 70% 5.0 mph WNW8.0 kmh WNW 10.0 mph16.1 kmh 30.07 in1018.3 mb 0.00 in0.0 mm 0.00 in/hr0.0 mm/hr 0.00 in0.0 mm
08:57 AM 50.6°F10.3°C 41.6°F5.3°C 71% 7.0 mph WNW11.3 kmh WNW 10.0 mph16.1 kmh 30.07 in1018.3 mb 0.00 in0.0 mm 0.00 in/hr0.0 mm/hr 0.00 in0.0 mm
08:56 AM 50.6°F10.3°C 41.6°F5.3°C 71% 6.0 mph W9.7 kmh W 10.0 mph16.1 kmh 30.07 in1018.3 mb 0.00 in0.0 mm 0.00 in/hr0.0 mm/hr 0.00 in0.0 mm
08:55 AM 50.5°F10.3°C 41.5°F5.3°C 71% 4.0 mph WNW6.4 kmh WNW 10.0 mph16.1 kmh 30.07 in1018.3 mb 0.00 in0.0 mm 0.00 in/hr0.0 mm/hr 0.00 in0.0 mm
08:54 AM 50.4°F10.2°C 41.4°F5.2°C 71% 6.0 mph WNW9.7 kmh WNW 10.0 mph16.1 kmh 30.07 in1018.3 mb 0.00 in0.0 mm 0.00 in/hr0.0 mm/hr 0.00 in0.0 mm
08:53 AM 50.4°F10.2°C 41.4°F5.2°C 71% 3.0 mph WNW4.8 kmh WNW 10.0 mph16.1 kmh 30.06 in1017.9 mb 0.00 in0.0 mm 0.00 in/hr0.0 mm/hr 0.00 in0.0 mm
08:52 AM 50.3°F10.2°C 41.6°F5.3°C 72% 6.0 mph WNW9.7 kmh WNW 10.0 mph16.1 kmh 30.06 in1017.9 mb 0.00 in0.0 mm 0.00 in/hr0.0 mm/hr 0.00 in0.0 mm
08:51 AM 50.2°F10.1°C 41.5°F5.3°C 72% 5.0 mph NW8.0 kmh NW 10.0 mph16.1 kmh 30.06 in1017.9 mb 0.00 in0.0 mm 0.00 in/hr0.0 mm/hr 0.00 in0.0 mm
08:50 AM 50.1°F10.1°C 41.4°F5.2°C 72% 6.0 mph NW9.7 kmh NW 10.0 mph16.1 kmh 30.06 in1017.9 mb 0.00 in0.0 mm 0.00 in/hr0.0 mm/hr 0.00 in0.0 mm
08:49 AM 50.0°F10.0°C 41.3°F5.2°C 72% 9.0 mph NW14.5 kmh NW 10.0 mph16.1 kmh 30.06 in1017.9 mb 0.00 in0.0 mm 0.00 in/hr0.0 mm/hr 0.00 in0.0 mm
08:48 AM 50.0°F10.0°C 41.3°F5.2°C 72% 6.0 mph WNW9.7 kmh WNW 9.0 mph14.5 kmh 30.06 in1017.9 mb 0.00 in0.0 mm 0.00 in/hr0.0 mm/hr 0.00 in0.0 mm
08:47 AM 49.9°F9.9°C 41.3°F5.2°C 72% 4.0 mph W6.4 kmh W 9.0 mph14.5 kmh 30.06 in1017.9 mb 0.00 in0.0 mm 0.00 in/hr0.0 mm/hr 0.00 in0.0 mm
08:46 AM 49.7°F9.8°C 41.1°F5.1°C 72% 5.0 mph WNW8.0 kmh WNW 9.0 mph14.5 kmh 30.06 in1017.9 mb 0.00 in0.0 mm 0.00 in/hr0.0 mm/hr 0.00 in0.0 mm
08:45 AM 49.6°F9.8°C 41.0°F5.0°C 72% 5.0 mph NW8.0 kmh NW 9.0 mph14.5 kmh 30.06 in1017.9 mb 0.00 in0.0 mm 0.00 in/hr0.0 mm/hr 0.00 in0.0 mm
08:44 AM 49.5°F9.7°C 41.2°F5.1°C 73% 5.0 mph WNW8.0 kmh WNW 9.0 mph14.5 kmh 30.06 in1017.9 mb 0.00 in0.0 mm 0.00 in/hr0.0 mm/hr 0.00 in0.0 mm
08:43 AM 49.4°F9.7°C 41.1°F5.1°C 73% 7.0 mph WNW11.3 kmh WNW 7.0 mph11.3 kmh 30.06 in1017.9 mb 0.00 in0.0 mm 0.00 in/hr0.0 mm/hr 0.00 in0.0 mm
08:42 AM 49.3°F9.6°C 41.0°F5.0°C 73% 7.0 mph WNW11.3 kmh WNW 7.0 mph11.3 kmh 30.06 in1017.9 mb 0.00 in0.0 mm 0.00 in/hr0.0 mm/hr 0.00 in0.0 mm
08:41 AM 49.2°F9.6°C 40.9°F4.9°C 73% 4.0 mph WNW6.4 kmh WNW 7.0 mph11.3 kmh 30.06 in1017.9 mb 0.00 in0.0 mm 0.00 in/hr0.0 mm/hr 0.00 in0.0 mm
08:40 AM 49.2°F9.6°C 40.9°F4.9°C 73% 4.0 mph WNW6.4 kmh WNW 7.0 mph11.3 kmh 30.06 in1017.9 mb 0.00 in0.0 mm 0.00 in/hr0.0 mm/hr 0.00 in0.0 mm
08:39 AM 49.1°F9.5°C 41.2°F5.1°C 74% 5.0 mph WNW8.0 kmh WNW 7.0 mph11.3 kmh 30.07 in1018.3 mb 0.00 in0.0 mm 0.00 in/hr0.0 mm/hr 0.00 in0.0 mm
08:38 AM 49.0°F9.4°C 40.7°F4.8°C 73% 6.0 mph WNW9.7 kmh WNW 7.0 mph11.3 kmh 30.07 in1018.3 mb 0.00 in0.0 mm 0.00 in/hr0.0 mm/hr 0.00 in0.0 mm
08:37 AM 48.9°F9.4°C 41.0°F5.0°C 74% 6.0 mph WNW9.7 kmh WNW 7.0 mph11.3 kmh 30.07 in1018.3 mb 0.00 in0.0 mm 0.00 in/hr0.0 mm/hr 0.00 in0.0 mm
08:36 AM 48.8°F9.3°C 40.9°F4.9°C 74% 5.0 mph WNW8.0 kmh WNW 7.0 mph11.3 kmh 30.06 in1017.9 mb 0.00 in0.0 mm 0.00 in/hr0.0 mm/hr 0.00 in0.0 mm
08:35 AM 48.7°F9.3°C 40.8°F4.9°C 74% 6.0 mph NW9.7 kmh NW 7.0 mph11.3 kmh 30.06 in1017.9 mb 0.00 in0.0 mm 0.00 in/hr0.0 mm/hr 0.00 in0.0 mm
08:34 AM 48.7°F9.3°C 40.8°F4.9°C 74% 4.0 mph WNW6.4 kmh WNW 7.0 mph11.3 kmh 30.06 in1017.9 mb 0.00 in0.0 mm 0.00 in/hr0.0 mm/hr 0.00 in0.0 mm
08:33 AM 48.5°F9.2°C 40.6°F4.8°C 74% 3.0 mph WNW4.8 kmh WNW 7.0 mph11.3 kmh 30.06 in1017.9 mb 0.00 in0.0 mm 0.00 in/hr0.0 mm/hr 0.00 in0.0 mm
08:32 AM 48.5°F9.2°C 40.6°F4.8°C 74% 3.0 mph WNW4.8 kmh WNW 5.0 mph8.0 kmh 30.06 in1017.9 mb 0.00 in0.0 mm 0.00 in/hr0.0 mm/hr 0.00 in0.0 mm
08:31 AM 48.3°F9.1°C 40.4°F4.7°C 74% 5.0 mph W8.0 kmh W 10.0 mph16.1 kmh 30.06 in1017.9 mb 0.00 in0.0 mm 0.00 in/hr0.0 mm/hr 0.00 in0.0 mm
08:30 AM 48.3°F9.1°C 40.4°F4.7°C 74% 3.0 mph W4.8 kmh W 10.0 mph16.1 kmh 30.06 in1017.9 mb 0.00 in0.0 mm 0.00 in/hr0.0 mm/hr 0.00 in0.0 mm
08:29 AM 48.2°F9.0°C 40.3°F4.6°C 74% 4.0 mph W6.4 kmh W 10.0 mph16.1 kmh 30.07 in1018.3 mb 0.00 in0.0 mm 0.00 in/hr0.0 mm/hr 0.00 in0.0 mm
08:28 AM 48.1°F8.9°C 40.2°F4.6°C 74% 5.0 mph WNW8.0 kmh WNW 10.0 mph16.1 kmh 30.06 in1017.9 mb 0.00 in0.0 mm 0.00 in/hr0.0 mm/hr 0.00 in0.0 mm
08:27 AM 48.0°F8.9°C 40.5°F4.7°C 75% 3.0 mph W4.8 kmh W 10.0 mph16.1 kmh 30.06 in1017.9 mb 0.00 in0.0 mm 0.00 in/hr0.0 mm/hr 0.00 in0.0 mm
08:26 AM 47.9°F8.8°C 40.4°F4.7°C 75% 4.0 mph W6.4 kmh W 10.0 mph16.1 kmh 30.06 in1017.9 mb 0.00 in0.0 mm 0.00 in/hr0.0 mm/hr 0.00 in0.0 mm
08:25 AM 47.9°F8.8°C 40.4°F4.7°C 75% 6.0 mph WNW9.7 kmh WNW 10.0 mph16.1 kmh 30.06 in1017.9 mb 0.00 in0.0 mm 0.00 in/hr0.0 mm/hr 0.00 in0.0 mm
08:24 AM 47.9°F8.8°C 40.4°F4.7°C 75% 7.0 mph W11.3 kmh W 10.0 mph16.1 kmh 30.06 in1017.9 mb 0.00 in0.0 mm 0.00 in/hr0.0 mm/hr 0.00 in0.0 mm
08:23 AM 47.8°F8.8°C 40.3°F4.6°C 75% 2.0 mph W3.2 kmh W 7.0 mph11.3 kmh 30.06 in1017.9 mb 0.00 in0.0 mm 0.00 in/hr0.0 mm/hr 0.00 in0.0 mm
08:22 AM 47.8°F8.8°C 40.3°F4.6°C 75% 3.0 mph W4.8 kmh W 7.0 mph11.3 kmh 30.06 in1017.9 mb 0.00 in0.0 mm 0.00 in/hr0.0 mm/hr 0.00 in0.0 mm
08:21 AM 47.8°F8.8°C 39.9°F4.4°C 74% 5.0 mph W8.0 kmh W 7.0 mph11.3 kmh 30.06 in1017.9 mb 0.00 in0.0 mm 0.00 in/hr0.0 mm/hr 0.00 in0.0 mm
08:20 AM 47.8°F8.8°C 39.9°F4.4°C 74% 4.0 mph WNW6.4 kmh WNW 7.0 mph11.3 kmh 30.06 in1017.9 mb 0.00 in0.0 mm 0.00 in/hr0.0 mm/hr 0.00 in0.0 mm
08:19 AM 47.7°F8.7°C 39.8°F4.3°C 74% 3.0 mph WNW4.8 kmh WNW 7.0 mph11.3 kmh 30.05 in1017.6 mb 0.00 in0.0 mm 0.00 in/hr0.0 mm/hr 0.00 in0.0 mm
08:18 AM 47.7°F8.7°C 39.8°F4.3°C 74% 2.0 mph WSW3.2 kmh WSW 7.0 mph11.3 kmh 30.05 in1017.6 mb 0.00 in0.0 mm 0.00 in/hr0.0 mm/hr 0.00 in0.0 mm
08:17 AM 47.7°F8.7°C 39.8°F4.3°C 74% 3.0 mph NW4.8 kmh NW 7.0 mph11.3 kmh 30.05 in1017.6 mb 0.00 in0.0 mm 0.00 in/hr0.0 mm/hr 0.00 in0.0 mm
08:16 AM 47.7°F8.7°C 39.8°F4.3°C 74% 2.0 mph W3.2 kmh W 7.0 mph11.3 kmh 30.05 in1017.6 mb 0.00 in0.0 mm 0.00 in/hr0.0 mm/hr 0.00 in0.0 mm
08:15 AM 47.7°F8.7°C 39.8°F4.3°C 74% 2.0 mph W3.2 kmh W 7.0 mph11.3 kmh 30.05 in1017.6 mb 0.00 in0.0 mm 0.00 in/hr0.0 mm/hr 0.00 in0.0 mm
08:14 AM 47.7°F8.7°C 39.8°F4.3°C 74% 4.0 mph W6.4 kmh W 7.0 mph11.3 kmh 30.05 in1017.6 mb 0.00 in0.0 mm 0.00 in/hr0.0 mm/hr 0.00 in0.0 mm
08:13 AM 47.6°F8.7°C 39.7°F4.3°C 74% 2.0 mph WNW3.2 kmh WNW 7.0 mph11.3 kmh 30.05 in1017.6 mb 0.00 in0.0 mm 0.00 in/hr0.0 mm/hr 0.00 in0.0 mm
08:12 AM 47.6°F8.7°C 39.7°F4.3°C 74% 4.0 mph W6.4 kmh W 7.0 mph11.3 kmh 30.05 in1017.6 mb 0.00 in0.0 mm 0.00 in/hr0.0 mm/hr 0.00 in0.0 mm
08:11 AM 47.7°F8.7°C 39.8°F4.3°C 74% 3.0 mph W4.8 kmh W 7.0 mph11.3 kmh 30.05 in1017.6 mb 0.00 in0.0 mm 0.00 in/hr0.0 mm/hr 0.00 in0.0 mm
08:10 AM 47.7°F8.7°C 39.8°F4.3°C 74% 2.0 mph WSW3.2 kmh WSW 7.0 mph11.3 kmh 30.05 in1017.6 mb 0.00 in0.0 mm 0.00 in/hr0.0 mm/hr 0.00 in0.0 mm
08:09 AM 47.7°F8.7°C 39.8°F4.3°C 74% 3.0 mph W4.8 kmh W 7.0 mph11.3 kmh 30.05 in1017.6 mb 0.00 in0.0 mm 0.00 in/hr0.0 mm/hr 0.00 in0.0 mm
08:08 AM 47.8°F8.8°C 39.6°F4.2°C 73% 3.0 mph W4.8 kmh W 7.0 mph11.3 kmh 30.05 in1017.6 mb 0.00 in0.0 mm 0.00 in/hr0.0 mm/hr 0.00 in0.0 mm
08:07 AM 47.8°F8.8°C 39.6°F4.2°C 73% 3.0 mph W4.8 kmh W 7.0 mph11.3 kmh 30.05 in1017.6 mb 0.00 in0.0 mm 0.00 in/hr0.0 mm/hr 0.00 in0.0 mm
08:06 AM 47.8°F8.8°C 39.6°F4.2°C 73% 4.0 mph W6.4 kmh W 7.0 mph11.3 kmh 30.05 in1017.6 mb 0.00 in0.0 mm 0.00 in/hr0.0 mm/hr 0.00 in0.0 mm
08:05 AM 47.9°F8.8°C 39.7°F4.3°C 73% 4.0 mph WNW6.4 kmh WNW 7.0 mph11.3 kmh 30.05 in1017.6 mb 0.00 in0.0 mm 0.00 in/hr0.0 mm/hr 0.00 in0.0 mm
08:04 AM 48.0°F8.9°C 39.8°F4.3°C 73% 3.0 mph W4.8 kmh W 7.0 mph11.3 kmh 30.05 in1017.6 mb 0.00 in0.0 mm 0.00 in/hr0.0 mm/hr 0.00 in0.0 mm
08:03 AM 48.0°F8.9°C 39.8°F4.3°C 73% 4.0 mph W6.4 kmh W 4.0 mph6.4 kmh 30.05 in1017.6 mb 0.00 in0.0 mm 0.00 in/hr0.0 mm/hr 0.00 in0.0 mm
08:02 AM 48.1°F8.9°C 39.9°F4.4°C 73% 1.0 mph W1.6 kmh W 3.0 mph4.8 kmh 30.05 in1017.6 mb 0.00 in0.0 mm 0.00 in/hr0.0 mm/hr 0.00 in0.0 mm
08:01 AM 48.1°F8.9°C 39.5°F4.2°C 72% 1.0 mph NNW1.6 kmh NNW 7.0 mph11.3 kmh 30.05 in1017.6 mb 0.00 in0.0 mm 0.00 in/hr0.0 mm/hr 0.00 in0.0 mm
08:00 AM 48.1°F8.9°C 39.5°F4.2°C 72% 5.0 mph W8.0 kmh W 7.0 mph11.3 kmh 30.05 in1017.6 mb 0.00 in0.0 mm 0.00 in/hr0.0 mm/hr 0.00 in0.0 mm
07:59 AM 48.1°F8.9°C 39.5°F4.2°C 72% 4.0 mph NW6.4 kmh NW 7.0 mph11.3 kmh 30.05 in1017.6 mb 0.00 in0.0 mm 0.00 in/hr0.0 mm/hr 0.00 in0.0 mm
07:58 AM 48.2°F9.0°C 39.6°F4.2°C 72% 1.0 mph NW1.6 kmh NW 7.0 mph11.3 kmh 30.05 in1017.6 mb 0.00 in0.0 mm 0.00 in/hr0.0 mm/hr 0.00 in0.0 mm
07:57 AM 48.2°F9.0°C 39.6°F4.2°C 72% Calm Calm 7.0 mph11.3 kmh 30.05 in1017.6 mb 0.00 in0.0 mm 0.00 in/hr0.0 mm/hr 0.00 in0.0 mm
07:56 AM 48.2°F9.0°C 39.6°F4.2°C 72% 4.0 mph NW6.4 kmh NW 7.0 mph11.3 kmh 30.05 in1017.6 mb 0.00 in0.0 mm 0.00 in/hr0.0 mm/hr 0.00 in0.0 mm
07:55 AM 48.3°F9.1°C 39.7°F4.3°C 72% 5.0 mph NNW8.0 kmh NNW 7.0 mph11.3 kmh 30.05 in1017.6 mb 0.00 in0.0 mm 0.00 in/hr0.0 mm/hr 0.00 in0.0 mm
07:54 AM 48.3°F9.1°C 39.7°F4.3°C 72% 3.0 mph WNW4.8 kmh WNW 7.0 mph11.3 kmh 30.04 in1017.3 mb 0.00 in0.0 mm 0.00 in/hr0.0 mm/hr 0.00 in0.0 mm
07:53 AM 48.3°F9.1°C 39.4°F4.1°C 71% 2.0 mph NW3.2 kmh NW 7.0 mph11.3 kmh 30.04 in1017.3 mb 0.00 in0.0 mm 0.00 in/hr0.0 mm/hr 0.00 in0.0 mm
07:52 AM 48.4°F9.1°C 39.4°F4.1°C 71% 2.0 mph WSW3.2 kmh WSW 7.0 mph11.3 kmh 30.04 in1017.3 mb 0.00 in0.0 mm 0.00 in/hr0.0 mm/hr 0.00 in0.0 mm
07:51 AM 48.3°F9.1°C 39.4°F4.1°C 71% 4.0 mph WNW6.4 kmh WNW 7.0 mph11.3 kmh 30.04 in1017.3 mb 0.00 in0.0 mm 0.00 in/hr0.0 mm/hr 0.00 in0.0 mm
07:50 AM 48.4°F9.1°C 39.4°F4.1°C 71% 5.0 mph WNW8.0 kmh WNW 7.0 mph11.3 kmh 30.04 in1017.3 mb 0.00 in0.0 mm 0.00 in/hr0.0 mm/hr 0.00 in0.0 mm
07:49 AM 48.4°F9.1°C 39.8°F4.3°C 72% 3.0 mph W4.8 kmh W 7.0 mph11.3 kmh 30.04 in1017.3 mb 0.00 in0.0 mm 0.00 in/hr0.0 mm/hr 0.00 in0.0 mm
07:48 AM 48.3°F9.1°C 39.7°F4.3°C 72% 4.0 mph WNW6.4 kmh WNW 7.0 mph11.3 kmh 30.04 in1017.3 mb 0.00 in0.0 mm 0.00 in/hr0.0 mm/hr 0.00 in0.0 mm
07:47 AM 48.3°F9.1°C 39.7°F4.3°C 72% 4.0 mph W6.4 kmh W 7.0 mph11.3 kmh 30.04 in1017.3 mb 0.00 in0.0 mm 0.00 in/hr0.0 mm/hr 0.00 in0.0 mm
07:46 AM 48.3°F9.1°C 39.7°F4.3°C 72% 4.0 mph W6.4 kmh W 7.0 mph11.3 kmh 30.04 in1017.3 mb 0.00 in0.0 mm 0.00 in/hr0.0 mm/hr 0.00 in0.0 mm
07:45 AM 48.3°F9.1°C 39.7°F4.3°C 72% 6.0 mph WSW9.7 kmh WSW 6.0 mph9.7 kmh 30.04 in1017.3 mb 0.00 in0.0 mm 0.00 in/hr0.0 mm/hr 0.00 in0.0 mm
07:44 AM 48.3°F9.1°C 39.7°F4.3°C 72% 3.0 mph W4.8 kmh W 6.0 mph9.7 kmh 30.04 in1017.3 mb 0.00 in0.0 mm 0.00 in/hr0.0 mm/hr 0.00 in0.0 mm
07:43 AM 48.4°F9.1°C 39.4°F4.1°C 71% 2.0 mph WNW3.2 kmh WNW 6.0 mph9.7 kmh 30.04 in1017.3 mb 0.00 in0.0 mm 0.00 in/hr0.0 mm/hr 0.00 in0.0 mm
07:42 AM 48.4°F9.1°C 39.4°F4.1°C 71% 4.0 mph W6.4 kmh W 6.0 mph9.7 kmh 30.04 in1017.3 mb 0.00 in0.0 mm 0.00 in/hr0.0 mm/hr 0.00 in0.0 mm
07:41 AM 48.4°F9.1°C 39.4°F4.1°C 71% 1.0 mph WNW1.6 kmh WNW 6.0 mph9.7 kmh 30.04 in1017.3 mb 0.00 in0.0 mm 0.00 in/hr0.0 mm/hr 0.00 in0.0 mm
07:40 AM 48.4°F9.1°C 39.4°F4.1°C 71% 1.0 mph W1.6 kmh W 5.0 mph8.0 kmh 30.04 in1017.3 mb 0.00 in0.0 mm 0.00 in/hr0.0 mm/hr 0.00 in0.0 mm
07:39 AM 48.5°F9.2°C 39.5°F4.2°C 71% 3.0 mph WNW4.8 kmh WNW 5.0 mph8.0 kmh 30.03 in1016.9 mb 0.00 in0.0 mm 0.00 in/hr0.0 mm/hr 0.00 in0.0 mm
07:38 AM 48.5°F9.2°C 39.5°F4.2°C 71% 3.0 mph WNW4.8 kmh WNW 5.0 mph8.0 kmh 30.03 in1016.9 mb 0.00 in0.0 mm 0.00 in/hr0.0 mm/hr 0.00 in0.0 mm
07:37 AM 48.5°F9.2°C 39.9°F4.4°C 72% 2.0 mph WNW3.2 kmh WNW 5.0 mph8.0 kmh 30.03 in1016.9 mb 0.00 in0.0 mm 0.00 in/hr0.0 mm/hr 0.00 in0.0 mm
07:36 AM 48.6°F9.2°C 39.6°F4.2°C 71% 1.0 mph NW1.6 kmh NW 5.0 mph8.0 kmh 30.03 in1016.9 mb 0.00 in0.0 mm 0.00 in/hr0.0 mm/hr 0.00 in0.0 mm
07:35 AM 48.6°F9.2°C 39.6°F4.2°C 71% 1.0 mph NW1.6 kmh NW 5.0 mph8.0 kmh 30.03 in1016.9 mb 0.00 in0.0 mm 0.00 in/hr0.0 mm/hr 0.00 in0.0 mm
07:34 AM 48.6°F9.2°C 39.6°F4.2°C 71% 3.0 mph WNW4.8 kmh WNW 5.0 mph8.0 kmh 30.03 in1016.9 mb 0.00 in0.0 mm 0.00 in/hr0.0 mm/hr 0.00 in0.0 mm
07:33 AM 48.7°F9.3°C 39.7°F4.3°C 71% 4.0 mph NW6.4 kmh NW 4.0 mph6.4 kmh 30.03 in1016.9 mb 0.00 in0.0 mm 0.00 in/hr0.0 mm/hr 0.00 in0.0 mm
07:32 AM 48.7°F9.3°C 39.7°F4.3°C 71% 3.0 mph NW4.8 kmh NW 3.0 mph4.8 kmh 30.03 in1016.9 mb 0.00 in0.0 mm 0.00 in/hr0.0 mm/hr 0.00 in0.0 mm
07:31 AM 48.7°F9.3°C 39.7°F4.3°C 71% 3.0 mph NW4.8 kmh NW 5.0 mph8.0 kmh 30.03 in1016.9 mb 0.00 in0.0 mm 0.00 in/hr0.0 mm/hr 0.00 in0.0 mm
07:30 AM 48.7°F9.3°C 39.7°F4.3°C 71% 2.0 mph NW3.2 kmh NW 5.0 mph8.0 kmh 30.03 in1016.9 mb 0.00 in0.0 mm 0.00 in/hr0.0 mm/hr 0.00 in0.0 mm
07:29 AM 48.8°F9.3°C 39.8°F4.3°C 71% 1.0 mph WNW1.6 kmh WNW 5.0 mph8.0 kmh 30.03 in1016.9 mb 0.00 in0.0 mm 0.00 in/hr0.0 mm/hr 0.00 in0.0 mm
07:28 AM 48.8°F9.3°C 39.8°F4.3°C 71% 2.0 mph NW3.2 kmh NW 5.0 mph8.0 kmh 30.03 in1016.9 mb 0.00 in0.0 mm 0.00 in/hr0.0 mm/hr 0.00 in0.0 mm
07:27 AM 48.8°F9.3°C 39.8°F4.3°C 71% 2.0 mph WSW3.2 kmh WSW 5.0 mph8.0 kmh 30.03 in1016.9 mb 0.00 in0.0 mm 0.00 in/hr0.0 mm/hr 0.00 in0.0 mm
07:26 AM 48.9°F9.4°C 39.9°F4.4°C 71% 2.0 mph W3.2 kmh W 5.0 mph8.0 kmh 30.03 in1016.9 mb 0.00 in0.0 mm 0.00 in/hr0.0 mm/hr 0.00 in0.0 mm
07:25 AM 48.9°F9.4°C 39.9°F4.4°C 71% Calm Calm 5.0 mph8.0 kmh 30.03 in1016.9 mb 0.00 in0.0 mm 0.00 in/hr0.0 mm/hr 0.00 in0.0 mm
07:24 AM 48.9°F9.4°C 39.9°F4.4°C 71% 2.0 mph NW3.2 kmh NW 5.0 mph8.0 kmh 30.03 in1016.9 mb 0.00 in0.0 mm 0.00 in/hr0.0 mm/hr 0.00 in0.0 mm
07:23 AM 49.0°F9.4°C 40.0°F4.4°C 71% 1.0 mph WSW1.6 kmh WSW 5.0 mph8.0 kmh 30.03 in1016.9 mb 0.00 in0.0 mm 0.00 in/hr0.0 mm/hr 0.00 in0.0 mm
07:22 AM 49.0°F9.4°C 40.0°F4.4°C 71% 1.0 mph SW1.6 kmh SW 5.0 mph8.0 kmh 30.03 in1016.9 mb 0.00 in0.0 mm 0.00 in/hr0.0 mm/hr 0.00 in0.0 mm
07:21 AM 49.0°F9.4°C 40.0°F4.4°C 71% 1.0 mph SW1.6 kmh SW 5.0 mph8.0 kmh 30.03 in1016.9 mb 0.00 in0.0 mm 0.00 in/hr0.0 mm/hr 0.00 in0.0 mm
07:20 AM 49.1°F9.5°C 39.8°F4.3°C 70% 4.0 mph SW6.4 kmh SW 5.0 mph8.0 kmh 30.03 in1016.9 mb 0.00 in0.0 mm 0.00 in/hr0.0 mm/hr 0.00 in0.0 mm
07:19 AM 49.1°F9.5°C 40.1°F4.5°C 71% 4.0 mph WNW6.4 kmh WNW 5.0 mph8.0 kmh 30.02 in1016.6 mb 0.00 in0.0 mm 0.00 in/hr0.0 mm/hr 0.00 in0.0 mm
07:18 AM 49.2°F9.6°C 40.2°F4.6°C 71% 2.0 mph W3.2 kmh W 5.0 mph8.0 kmh 30.02 in1016.6 mb 0.00 in0.0 mm 0.00 in/hr0.0 mm/hr 0.00 in0.0 mm
07:17 AM 49.2°F9.6°C 40.2°F4.6°C 71% 1.0 mph SW1.6 kmh SW 5.0 mph8.0 kmh 30.02 in1016.6 mb 0.00 in0.0 mm 0.00 in/hr0.0 mm/hr 0.00 in0.0 mm
07:16 AM 49.2°F9.6°C 39.9°F4.4°C 70% Calm Calm 5.0 mph8.0 kmh 30.02 in1016.6 mb 0.00 in0.0 mm 0.00 in/hr0.0 mm/hr 0.00 in0.0 mm
07:15 AM 49.3°F9.6°C 39.9°F4.4°C 70% 1.0 mph WNW1.6 kmh WNW 5.0 mph8.0 kmh 30.03 in1016.9 mb 0.00 in0.0 mm 0.00 in/hr0.0 mm/hr 0.00 in0.0 mm
07:14 AM 49.3°F9.6°C 39.9°F4.4°C 70% 5.0 mph WNW8.0 kmh WNW 5.0 mph8.0 kmh 30.03 in1016.9 mb 0.00 in0.0 mm 0.00 in/hr0.0 mm/hr 0.00 in0.0 mm
07:13 AM 49.4°F9.7°C 40.0°F4.4°C 70% 3.0 mph NW4.8 kmh NW 5.0 mph8.0 kmh 30.03 in1016.9 mb 0.00 in0.0 mm 0.00 in/hr0.0 mm/hr 0.00 in0.0 mm
07:12 AM 49.4°F9.7°C 40.0°F4.4°C 70% 2.0 mph W3.2 kmh W 5.0 mph8.0 kmh 30.03 in1016.9 mb 0.00 in0.0 mm 0.00 in/hr0.0 mm/hr 0.00 in0.0 mm
07:11 AM 49.4°F9.7°C 40.0°F4.4°C 70% 5.0 mph W8.0 kmh W 5.0 mph8.0 kmh 30.03 in1016.9 mb 0.00 in0.0 mm 0.00 in/hr0.0 mm/hr 0.00 in0.0 mm
07:10 AM 49.4°F9.7°C 40.0°F4.4°C 70% 5.0 mph WNW8.0 kmh WNW 5.0 mph8.0 kmh 30.03 in1016.9 mb 0.00 in0.0 mm 0.00 in/hr0.0 mm/hr 0.00 in0.0 mm
07:09 AM 49.5°F9.7°C 40.1°F4.5°C 70% 2.0 mph NW3.2 kmh NW 4.0 mph6.4 kmh 30.03 in1016.9 mb 0.00 in0.0 mm 0.00 in/hr0.0 mm/hr 0.00 in0.0 mm
07:08 AM 49.5°F9.7°C 40.1°F4.5°C 70% 2.0 mph W3.2 kmh W 4.0 mph6.4 kmh 30.03 in1016.9 mb 0.00 in0.0 mm 0.00 in/hr0.0 mm/hr 0.00 in0.0 mm
07:07 AM 49.5°F9.7°C 40.1°F4.5°C 70% 1.0 mph W1.6 kmh W 4.0 mph6.4 kmh 30.03 in1016.9 mb 0.00 in0.0 mm 0.00 in/hr0.0 mm/hr 0.00 in0.0 mm
07:06 AM 49.6°F9.8°C 40.2°F4.6°C 70% 1.0 mph W1.6 kmh W 4.0 mph6.4 kmh 30.03 in1016.9 mb 0.00 in0.0 mm 0.00 in/hr0.0 mm/hr 0.00 in0.0 mm
07:05 AM 49.6°F9.8°C 40.2°F4.6°C 70% 1.0 mph WNW1.6 kmh WNW 2.0 mph3.2 kmh 30.03 in1016.9 mb 0.00 in0.0 mm 0.00 in/hr0.0 mm/hr 0.00 in0.0 mm
07:04 AM 49.6°F9.8°C 40.2°F4.6°C 70% 1.0 mph WNW1.6 kmh WNW 2.0 mph3.2 kmh 30.03 in1016.9 mb 0.00 in0.0 mm 0.00 in/hr0.0 mm/hr 0.00 in0.0 mm
07:03 AM 49.6°F9.8°C 40.2°F4.6°C 70% Calm Calm 2.0 mph3.2 kmh 30.03 in1016.9 mb 0.00 in0.0 mm 0.00 in/hr0.0 mm/hr 0.00 in0.0 mm
07:02 AM 49.6°F9.8°C 40.2°F4.6°C 70% 1.0 mph WNW1.6 kmh WNW 1.0 mph1.6 kmh 30.03 in1016.9 mb 0.00 in0.0 mm 0.00 in/hr0.0 mm/hr 0.00 in0.0 mm
07:01 AM 49.6°F9.8°C 40.2°F4.6°C 70% 2.0 mph WNW3.2 kmh WNW 8.0 mph12.9 kmh 30.03 in1016.9 mb 0.00 in0.0 mm 0.00 in/hr0.0 mm/hr 0.00 in0.0 mm
07:00 AM 49.6°F9.8°C 40.2°F4.6°C 70% 3.0 mph WNW4.8 kmh WNW 8.0 mph12.9 kmh 30.03 in1016.9 mb 0.00 in0.0 mm 0.00 in/hr0.0 mm/hr 0.00 in0.0 mm
06:59 AM 49.5°F9.7°C 40.1°F4.5°C 70% 4.0 mph WNW6.4 kmh WNW 8.0 mph12.9 kmh 30.03 in1016.9 mb 0.00 in0.0 mm 0.00 in/hr0.0 mm/hr 0.00 in0.0 mm
06:58 AM 49.5°F9.7°C 40.1°F4.5°C 70% 6.0 mph W9.7 kmh W 8.0 mph12.9 kmh 30.02 in1016.6 mb 0.00 in0.0 mm 0.00 in/hr0.0 mm/hr 0.00 in0.0 mm
06:57 AM 49.5°F9.7°C 40.1°F4.5°C 70% 5.0 mph WNW8.0 kmh WNW 8.0 mph12.9 kmh 30.02 in1016.6 mb 0.00 in0.0 mm 0.00 in/hr0.0 mm/hr 0.00 in0.0 mm
06:56 AM 49.4°F9.7°C 40.0°F4.4°C 70% 7.0 mph NW11.3 kmh NW 8.0 mph12.9 kmh 30.02 in1016.6 mb 0.00 in0.0 mm 0.00 in/hr0.0 mm/hr 0.00 in0.0 mm
06:55 AM 49.4°F9.7°C 40.0°F4.4°C 70% 6.0 mph WNW9.7 kmh WNW 8.0 mph12.9 kmh 30.02 in1016.6 mb 0.00 in0.0 mm 0.00 in/hr0.0 mm/hr 0.00 in0.0 mm
06:54 AM 49.4°F9.7°C 40.0°F4.4°C 70% 6.0 mph WNW9.7 kmh WNW 8.0 mph12.9 kmh 30.02 in1016.6 mb 0.00 in0.0 mm 0.00 in/hr0.0 mm/hr 0.00 in0.0 mm
06:53 AM 49.3°F9.6°C 40.3°F4.6°C 71% 6.0 mph WNW9.7 kmh WNW 8.0 mph12.9 kmh 30.02 in1016.6 mb 0.00 in0.0 mm 0.00 in/hr0.0 mm/hr 0.00 in0.0 mm
06:52 AM 49.4°F9.7°C 40.4°F4.7°C 71% 6.0 mph WNW9.7 kmh WNW 8.0 mph12.9 kmh 30.02 in1016.6 mb 0.00 in0.0 mm 0.00 in/hr0.0 mm/hr 0.00 in0.0 mm
06:51 AM 49.4°F9.7°C 40.4°F4.7°C 71% 6.0 mph WNW9.7 kmh WNW 8.0 mph12.9 kmh 30.02 in1016.6 mb 0.00 in0.0 mm 0.00 in/hr0.0 mm/hr 0.00 in0.0 mm
06:50 AM 49.4°F9.7°C 40.4°F4.7°C 71% 5.0 mph WNW8.0 kmh WNW 8.0 mph12.9 kmh 30.02 in1016.6 mb 0.00 in0.0 mm 0.00 in/hr0.0 mm/hr 0.00 in0.0 mm
06:49 AM 49.4°F9.7°C 40.0°F4.4°C 70% 6.0 mph NW9.7 kmh NW 8.0 mph12.9 kmh 30.02 in1016.6 mb 0.00 in0.0 mm 0.00 in/hr0.0 mm/hr 0.00 in0.0 mm
06:48 AM 49.5°F9.7°C 40.1°F4.5°C 70% 6.0 mph WNW9.7 kmh WNW 8.0 mph12.9 kmh 30.02 in1016.6 mb 0.00 in0.0 mm 0.00 in/hr0.0 mm/hr 0.00 in0.0 mm
06:47 AM 49.5°F9.7°C 40.1°F4.5°C 70% 6.0 mph WNW9.7 kmh WNW 8.0 mph12.9 kmh 30.02 in1016.6 mb 0.00 in0.0 mm 0.00 in/hr0.0 mm/hr 0.00 in0.0 mm
06:46 AM 49.6°F9.8°C 40.2°F4.6°C 70% 5.0 mph WNW8.0 kmh WNW 8.0 mph12.9 kmh 30.03 in1016.9 mb 0.00 in0.0 mm 0.00 in/hr0.0 mm/hr 0.00 in0.0 mm
06:45 AM 49.6°F9.8°C 40.2°F4.6°C 70% 5.0 mph WNW8.0 kmh WNW 8.0 mph12.9 kmh 30.02 in1016.6 mb 0.00 in0.0 mm 0.00 in/hr0.0 mm/hr 0.00 in0.0 mm
06:44 AM 49.7°F9.8°C 40.3°F4.6°C 70% 5.0 mph WNW8.0 kmh WNW 8.0 mph12.9 kmh 30.02 in1016.6 mb 0.00 in0.0 mm 0.00 in/hr0.0 mm/hr 0.00 in0.0 mm
06:43 AM 49.7°F9.8°C 40.3°F4.6°C 70% 6.0 mph WNW9.7 kmh WNW 8.0 mph12.9 kmh 30.02 in1016.6 mb 0.00 in0.0 mm 0.00 in/hr0.0 mm/hr 0.00 in0.0 mm
06:42 AM 49.7°F9.8°C 40.3°F4.6°C 70% 7.0 mph WNW11.3 kmh WNW 8.0 mph12.9 kmh 30.02 in1016.6 mb 0.00 in0.0 mm 0.00 in/hr0.0 mm/hr 0.00 in0.0 mm
06:41 AM 49.7°F9.8°C 40.3°F4.6°C 70% 6.0 mph WNW9.7 kmh WNW 8.0 mph12.9 kmh 30.03 in1016.9 mb 0.00 in0.0 mm 0.00 in/hr0.0 mm/hr 0.00 in0.0 mm
06:40 AM 49.7°F9.8°C 40.3°F4.6°C 70% 7.0 mph WNW11.3 kmh WNW 8.0 mph12.9 kmh 30.02 in1016.6 mb 0.00 in0.0 mm 0.00 in/hr0.0 mm/hr 0.00 in0.0 mm
06:39 AM 49.7°F9.8°C 40.3°F4.6°C 70% 6.0 mph WNW9.7 kmh WNW 7.0 mph11.3 kmh 30.02 in1016.6 mb 0.00 in0.0 mm 0.00 in/hr0.0 mm/hr 0.00 in0.0 mm
06:38 AM 49.7°F9.8°C 40.0°F4.4°C 69% 6.0 mph WNW9.7 kmh WNW 7.0 mph11.3 kmh 30.02 in1016.6 mb 0.00 in0.0 mm 0.00 in/hr0.0 mm/hr 0.00 in0.0 mm
06:37 AM 49.7°F9.8°C 40.0°F4.4°C 69% 7.0 mph WNW11.3 kmh WNW 7.0 mph11.3 kmh 30.02 in1016.6 mb 0.00 in0.0 mm 0.00 in/hr0.0 mm/hr 0.00 in0.0 mm
06:36 AM 49.7°F9.8°C 40.0°F4.4°C 69% 6.0 mph WNW9.7 kmh WNW 7.0 mph11.3 kmh 30.02 in1016.6 mb 0.00 in0.0 mm 0.00 in/hr0.0 mm/hr 0.00 in0.0 mm
06:35 AM 49.7°F9.8°C 40.0°F4.4°C 69% 5.0 mph W8.0 kmh W 7.0 mph11.3 kmh 30.02 in1016.6 mb 0.00 in0.0 mm 0.00 in/hr0.0 mm/hr 0.00 in0.0 mm
06:34 AM 49.8°F9.9°C 40.1°F4.5°C 69% 6.0 mph WNW9.7 kmh WNW 7.0 mph11.3 kmh 30.02 in1016.6 mb 0.00 in0.0 mm 0.00 in/hr0.0 mm/hr 0.00 in0.0 mm
06:33 AM 49.8°F9.9°C 40.1°F4.5°C 69% 5.0 mph WNW8.0 kmh WNW 7.0 mph11.3 kmh 30.02 in1016.6 mb 0.00 in0.0 mm 0.00 in/hr0.0 mm/hr 0.00 in0.0 mm
06:32 AM 49.8°F9.9°C 40.1°F4.5°C 69% 5.0 mph WNW8.0 kmh WNW 7.0 mph11.3 kmh 30.02 in1016.6 mb 0.00 in0.0 mm 0.00 in/hr0.0 mm/hr 0.00 in0.0 mm
06:31 AM 49.9°F9.9°C 40.2°F4.6°C 69% 5.0 mph WNW8.0 kmh WNW 8.0 mph12.9 kmh 30.03 in1016.9 mb 0.00 in0.0 mm 0.00 in/hr0.0 mm/hr 0.00 in0.0 mm
06:30 AM 49.9°F9.9°C 40.2°F4.6°C 69% 5.0 mph W8.0 kmh W 8.0 mph12.9 kmh 30.03 in1016.9 mb 0.00 in0.0 mm 0.00 in/hr0.0 mm/hr 0.00 in0.0 mm
06:29 AM 49.9°F9.9°C 40.2°F4.6°C 69% 6.0 mph WNW9.7 kmh WNW 8.0 mph12.9 kmh 30.02 in1016.6 mb 0.00 in0.0 mm 0.00 in/hr0.0 mm/hr 0.00 in0.0 mm
06:28 AM 50.0°F10.0°C 40.2°F4.6°C 69% 6.0 mph WNW9.7 kmh WNW 8.0 mph12.9 kmh 30.02 in1016.6 mb 0.00 in0.0 mm 0.00 in/hr0.0 mm/hr 0.00 in0.0 mm
06:27 AM 50.0°F10.0°C 40.2°F4.6°C 69% 5.0 mph WNW8.0 kmh WNW 8.0 mph12.9 kmh 30.02 in1016.6 mb 0.00 in0.0 mm 0.00 in/hr0.0 mm/hr 0.00 in0.0 mm
06:26 AM 50.1°F10.1°C 40.3°F4.6°C 69% 6.0 mph WNW9.7 kmh WNW 8.0 mph12.9 kmh 30.02 in1016.6 mb 0.00 in0.0 mm 0.00 in/hr0.0 mm/hr 0.00 in0.0 mm
06:25 AM 50.1°F10.1°C 40.0°F4.4°C 68% 7.0 mph WNW11.3 kmh WNW 8.0 mph12.9 kmh 30.02 in1016.6 mb 0.00 in0.0 mm 0.00 in/hr0.0 mm/hr 0.00 in0.0 mm
06:24 AM 50.2°F10.1°C 40.1°F4.5°C 68% 7.0 mph NW11.3 kmh NW 8.0 mph12.9 kmh 30.02 in1016.6 mb 0.00 in0.0 mm 0.00 in/hr0.0 mm/hr 0.00 in0.0 mm
06:23 AM 50.2°F10.1°C 40.1°F4.5°C 68% 6.0 mph WNW9.7 kmh WNW 8.0 mph12.9 kmh 30.02 in1016.6 mb 0.00 in0.0 mm 0.00 in/hr0.0 mm/hr 0.00 in0.0 mm
06:22 AM 50.3°F10.2°C 40.2°F4.6°C 68% 6.0 mph WNW9.7 kmh WNW 8.0 mph12.9 kmh 30.02 in1016.6 mb 0.00 in0.0 mm 0.00 in/hr0.0 mm/hr 0.00 in0.0 mm
06:21 AM 50.3°F10.2°C 40.2°F4.6°C 68% 6.0 mph WNW9.7 kmh WNW 8.0 mph12.9 kmh 30.02 in1016.6 mb 0.00 in0.0 mm 0.00 in/hr0.0 mm/hr 0.00 in0.0 mm
06:20 AM 50.4°F10.2°C 40.3°F4.6°C 68% 7.0 mph WNW11.3 kmh WNW 8.0 mph12.9 kmh 30.02 in1016.6 mb 0.00 in0.0 mm 0.00 in/hr0.0 mm/hr 0.00 in0.0 mm
06:19 AM 50.4°F10.2°C 40.3°F4.6°C 68% 6.0 mph WNW9.7 kmh WNW 8.0 mph12.9 kmh 30.02 in1016.6 mb 0.00 in0.0 mm 0.00 in/hr0.0 mm/hr 0.00 in0.0 mm
06:18 AM 50.4°F10.2°C 40.3°F4.6°C 68% 7.0 mph WNW11.3 kmh WNW 8.0 mph12.9 kmh 30.02 in1016.6 mb 0.00 in0.0 mm 0.00 in/hr0.0 mm/hr 0.00 in0.0 mm
06:17 AM 50.5°F10.3°C 40.4°F4.7°C 68% 7.0 mph WNW11.3 kmh WNW 8.0 mph12.9 kmh 30.02 in1016.6 mb 0.00 in0.0 mm 0.00 in/hr0.0 mm/hr 0.00 in0.0 mm
06:16 AM 50.5°F10.3°C 40.4°F4.7°C 68% 6.0 mph WNW9.7 kmh WNW 8.0 mph12.9 kmh 30.02 in1016.6 mb 0.00 in0.0 mm 0.00 in/hr0.0 mm/hr 0.00 in0.0 mm
06:15 AM 50.6°F10.3°C 40.4°F4.7°C 68% 7.0 mph WNW11.3 kmh WNW 8.0 mph12.9 kmh 30.02 in1016.6 mb 0.00 in0.0 mm 0.00 in/hr0.0 mm/hr 0.00 in0.0 mm
06:14 AM 50.6°F10.3°C 40.1°F4.5°C 67% 6.0 mph WNW9.7 kmh WNW 8.0 mph12.9 kmh 30.02 in1016.6 mb 0.00 in0.0 mm 0.00 in/hr0.0 mm/hr 0.00 in0.0 mm
06:13 AM 50.7°F10.4°C 40.2°F4.6°C 67% 7.0 mph WNW11.3 kmh WNW 8.0 mph12.9 kmh 30.02 in1016.6 mb 0.00 in0.0 mm 0.00 in/hr0.0 mm/hr 0.00 in0.0 mm
06:12 AM 50.8°F10.4°C 40.3°F4.6°C 67% 7.0 mph WNW11.3 kmh WNW 8.0 mph12.9 kmh 30.02 in1016.6 mb 0.00 in0.0 mm 0.00 in/hr0.0 mm/hr 0.00 in0.0 mm
06:11 AM 50.8°F10.4°C 40.3°F4.6°C 67% 7.0 mph WNW11.3 kmh WNW 8.0 mph12.9 kmh 30.01 in1016.3 mb 0.00 in0.0 mm 0.00 in/hr0.0 mm/hr 0.00 in0.0 mm
06:10 AM 50.9°F10.5°C 40.4°F4.7°C 67% 7.0 mph WNW11.3 kmh WNW 8.0 mph12.9 kmh 30.01 in1016.3 mb 0.00 in0.0 mm 0.00 in/hr0.0 mm/hr 0.00 in0.0 mm
06:09 AM 51.0°F10.6°C 40.4°F4.7°C 67% 6.0 mph WNW9.7 kmh WNW 8.0 mph12.9 kmh 30.01 in1016.3 mb 0.00 in0.0 mm 0.00 in/hr0.0 mm/hr 0.00 in0.0 mm
06:08 AM 51.0°F10.6°C 40.4°F4.7°C 67% 6.0 mph NW9.7 kmh NW 7.0 mph11.3 kmh 30.01 in1016.3 mb 0.00 in0.0 mm 0.00 in/hr0.0 mm/hr 0.00 in0.0 mm
06:07 AM 51.0°F10.6°C 40.4°F4.7°C 67% 6.0 mph WNW9.7 kmh WNW 7.0 mph11.3 kmh 30.01 in1016.3 mb 0.00 in0.0 mm 0.00 in/hr0.0 mm/hr 0.00 in0.0 mm
06:06 AM 51.0°F10.6°C 40.4°F4.7°C 67% 6.0 mph WNW9.7 kmh WNW 7.0 mph11.3 kmh 30.01 in1016.3 mb 0.00 in0.0 mm 0.00 in/hr0.0 mm/hr 0.00 in0.0 mm
06:05 AM 51.1°F10.6°C 40.5°F4.7°C 67% 5.0 mph WNW8.0 kmh WNW 7.0 mph11.3 kmh 30.01 in1016.3 mb 0.00 in0.0 mm 0.00 in/hr0.0 mm/hr 0.00 in0.0 mm
06:04 AM 51.1°F10.6°C 40.5°F4.7°C 67% 7.0 mph WNW11.3 kmh WNW 7.0 mph11.3 kmh 30.01 in1016.3 mb 0.00 in0.0 mm 0.00 in/hr0.0 mm/hr 0.00 in0.0 mm
06:03 AM 51.2°F10.7°C 40.6°F4.8°C 67% 7.0 mph WNW11.3 kmh WNW 7.0 mph11.3 kmh 30.01 in1016.3 mb 0.00 in0.0 mm 0.00 in/hr0.0 mm/hr 0.00 in0.0 mm
06:02 AM 51.2°F10.7°C 40.3°F4.6°C 66% 5.0 mph WNW8.0 kmh WNW 7.0 mph11.3 kmh 30.01 in1016.3 mb 0.00 in0.0 mm 0.00 in/hr0.0 mm/hr 0.00 in0.0 mm
06:01 AM 51.2°F10.7°C 40.6°F4.8°C 67% 6.0 mph WNW9.7 kmh WNW 10.0 mph16.1 kmh 30.01 in1016.3 mb 0.00 in0.0 mm 0.00 in/hr0.0 mm/hr 0.00 in0.0 mm
06:00 AM 51.2°F10.7°C 40.6°F4.8°C 67% 6.0 mph NW9.7 kmh NW 10.0 mph16.1 kmh 30.01 in1016.3 mb 0.00 in0.0 mm 0.00 in/hr0.0 mm/hr 0.00 in0.0 mm
05:59 AM 51.2°F10.7°C 40.6°F4.8°C 67% 6.0 mph WNW9.7 kmh WNW 10.0 mph16.1 kmh 30.01 in1016.3 mb 0.00 in0.0 mm 0.00 in/hr0.0 mm/hr 0.00 in0.0 mm
05:58 AM 51.2°F10.7°C 40.6°F4.8°C 67% 6.0 mph WNW9.7 kmh WNW 10.0 mph16.1 kmh 30.01 in1016.3 mb 0.00 in0.0 mm 0.00 in/hr0.0 mm/hr 0.00 in0.0 mm
05:57 AM 51.3°F10.7°C 40.7°F4.8°C 67% 6.0 mph WNW9.7 kmh WNW 10.0 mph16.1 kmh 30.01 in1016.3 mb 0.00 in0.0 mm 0.00 in/hr0.0 mm/hr 0.00 in0.0 mm
05:56 AM 51.2°F10.7°C 40.6°F4.8°C 67% 5.0 mph WNW8.0 kmh WNW 10.0 mph16.1 kmh 30.01 in1016.3 mb 0.00 in0.0 mm 0.00 in/hr0.0 mm/hr 0.00 in0.0 mm
05:55 AM 51.2°F10.7°C 40.6°F4.8°C 67% 5.0 mph NW8.0 kmh NW 10.0 mph16.1 kmh 30.01 in1016.3 mb 0.00 in0.0 mm 0.00 in/hr0.0 mm/hr 0.00 in0.0 mm
05:54 AM 51.2°F10.7°C 40.6°F4.8°C 67% 6.0 mph WNW9.7 kmh WNW 10.0 mph16.1 kmh 30.01 in1016.3 mb 0.00 in0.0 mm 0.00 in/hr0.0 mm/hr 0.00 in0.0 mm
05:53 AM 51.2°F10.7°C 40.6°F4.8°C 67% 6.0 mph WNW9.7 kmh WNW 10.0 mph16.1 kmh 30.01 in1016.3 mb 0.00 in0.0 mm 0.00 in/hr0.0 mm/hr 0.00 in0.0 mm
05:52 AM 51.1°F10.6°C 40.5°F4.7°C 67% 7.0 mph WNW11.3 kmh WNW 10.0 mph16.1 kmh 30.01 in1016.3 mb 0.00 in0.0 mm 0.00 in/hr0.0 mm/hr 0.00 in0.0 mm
05:51 AM 51.1°F10.6°C 40.5°F4.7°C 67% 6.0 mph WNW9.7 kmh WNW 10.0 mph16.1 kmh 30.01 in1016.3 mb 0.00 in0.0 mm 0.00 in/hr0.0 mm/hr 0.00 in0.0 mm
05:50 AM 51.1°F10.6°C 40.5°F4.7°C 67% 5.0 mph WNW8.0 kmh WNW 10.0 mph16.1 kmh 30.01 in1016.3 mb 0.00 in0.0 mm 0.00 in/hr0.0 mm/hr 0.00 in0.0 mm
05:49 AM 51.0°F10.6°C 40.4°F4.7°C 67% 7.0 mph WNW11.3 kmh WNW 10.0 mph16.1 kmh 30.01 in1016.3 mb 0.00 in0.0 mm 0.00 in/hr0.0 mm/hr 0.00 in0.0 mm
05:48 AM 51.0°F10.6°C 40.4°F4.7°C 67% 6.0 mph WNW9.7 kmh WNW 10.0 mph16.1 kmh 30.00 in1015.9 mb 0.00 in0.0 mm 0.00 in/hr0.0 mm/hr 0.00 in0.0 mm
05:47 AM 51.0°F10.6°C 40.4°F4.7°C 67% 6.0 mph WNW9.7 kmh WNW 10.0 mph16.1 kmh 30.00 in1015.9 mb 0.00 in0.0 mm 0.00 in/hr0.0 mm/hr 0.00 in0.0 mm
05:46 AM 51.0°F10.6°C 40.4°F4.7°C 67% 6.0 mph WNW9.7 kmh WNW 10.0 mph16.1 kmh 30.00 in1015.9 mb 0.00 in0.0 mm 0.00 in/hr0.0 mm/hr 0.00 in0.0 mm
05:45 AM 51.0°F10.6°C 40.4°F4.7°C 67% 5.0 mph WNW8.0 kmh WNW 10.0 mph16.1 kmh 30.00 in1015.9 mb 0.00 in0.0 mm 0.00 in/hr0.0 mm/hr 0.00 in0.0 mm
05:44 AM 51.0°F10.6°C 40.4°F4.7°C 67% 6.0 mph NW9.7 kmh NW 10.0 mph16.1 kmh 30.00 in1015.9 mb 0.00 in0.0 mm 0.00 in/hr0.0 mm/hr 0.00 in0.0 mm
05:43 AM 51.0°F10.6°C 40.4°F4.7°C 67% 6.0 mph NW9.7 kmh NW 10.0 mph16.1 kmh 30.00 in1015.9 mb 0.00 in0.0 mm 0.00 in/hr0.0 mm/hr 0.00 in0.0 mm
05:42 AM 51.0°F10.6°C 40.4°F4.7°C 67% 8.0 mph NW12.9 kmh NW 10.0 mph16.1 kmh 30.01 in1016.3 mb 0.00 in0.0 mm 0.00 in/hr0.0 mm/hr 0.00 in0.0 mm
05:41 AM 51.0°F10.6°C 40.1°F4.5°C 66% 7.0 mph NW11.3 kmh NW 10.0 mph16.1 kmh 30.01 in1016.3 mb 0.00 in0.0 mm 0.00 in/hr0.0 mm/hr 0.00 in0.0 mm
05:40 AM 51.1°F10.6°C 40.2°F4.6°C 66% 7.0 mph NW11.3 kmh NW 10.0 mph16.1 kmh 30.01 in1016.3 mb 0.00 in0.0 mm 0.00 in/hr0.0 mm/hr 0.00 in0.0 mm
05:39 AM 51.1°F10.6°C 40.2°F4.6°C 66% 7.0 mph NW11.3 kmh NW 10.0 mph16.1 kmh 30.01 in1016.3 mb 0.00 in0.0 mm 0.00 in/hr0.0 mm/hr 0.00 in0.0 mm
05:38 AM 51.0°F10.6°C 40.1°F4.5°C 66% 7.0 mph NW11.3 kmh NW 10.0 mph16.1 kmh 30.00 in1015.9 mb 0.00 in0.0 mm 0.00 in/hr0.0 mm/hr 0.00 in0.0 mm
05:37 AM 51.1°F10.6°C 40.2°F4.6°C 66% 7.0 mph NW11.3 kmh NW 10.0 mph16.1 kmh 30.01 in1016.3 mb 0.00 in0.0 mm 0.00 in/hr0.0 mm/hr 0.00 in0.0 mm
05:36 AM 51.1°F10.6°C 40.2°F4.6°C 66% 7.0 mph NW11.3 kmh NW 10.0 mph16.1 kmh 30.01 in1016.3 mb 0.00 in0.0 mm 0.00 in/hr0.0 mm/hr 0.00 in0.0 mm
05:35 AM 51.2°F10.7°C 40.3°F4.6°C 66% 8.0 mph NW12.9 kmh NW 10.0 mph16.1 kmh 30.01 in1016.3 mb 0.00 in0.0 mm 0.00 in/hr0.0 mm/hr 0.00 in0.0 mm
05:34 AM 51.3°F10.7°C 40.3°F4.6°C 66% 7.0 mph WNW11.3 kmh WNW 10.0 mph16.1 kmh 30.01 in1016.3 mb 0.00 in0.0 mm 0.00 in/hr0.0 mm/hr 0.00 in0.0 mm
05:33 AM 51.3°F10.7°C 40.3°F4.6°C 66% 8.0 mph NW12.9 kmh NW 9.0 mph14.5 kmh 30.01 in1016.3 mb 0.00 in0.0 mm 0.00 in/hr0.0 mm/hr 0.00 in0.0 mm
05:32 AM 51.4°F10.8°C 40.4°F4.7°C 66% 7.0 mph NW11.3 kmh NW 8.0 mph12.9 kmh 30.01 in1016.3 mb 0.00 in0.0 mm 0.00 in/hr0.0 mm/hr 0.00 in0.0 mm
05:31 AM 51.5°F10.8°C 40.5°F4.7°C 66% 7.0 mph NW11.3 kmh NW 10.0 mph16.1 kmh 30.01 in1016.3 mb 0.00 in0.0 mm 0.00 in/hr0.0 mm/hr 0.00 in0.0 mm
05:30 AM 51.6°F10.9°C 40.6°F4.8°C 66% 8.0 mph NW12.9 kmh NW 10.0 mph16.1 kmh 30.01 in1016.3 mb 0.00 in0.0 mm 0.00 in/hr0.0 mm/hr 0.00 in0.0 mm
05:29 AM 51.7°F10.9°C 40.7°F4.8°C 66% 8.0 mph NW12.9 kmh NW 10.0 mph16.1 kmh 30.01 in1016.3 mb 0.00 in0.0 mm 0.00 in/hr0.0 mm/hr 0.00 in0.0 mm
05:28 AM 51.7°F10.9°C 40.7°F4.8°C 66% 8.0 mph WNW12.9 kmh WNW 10.0 mph16.1 kmh 30.01 in1016.3 mb 0.00 in0.0 mm 0.00 in/hr0.0 mm/hr 0.00 in0.0 mm
05:27 AM 51.8°F11.0°C 40.8°F4.9°C 66% 8.0 mph NW12.9 kmh NW 10.0 mph16.1 kmh 30.01 in1016.3 mb 0.00 in0.0 mm 0.00 in/hr0.0 mm/hr 0.00 in0.0 mm
05:26 AM 51.8°F11.0°C 40.4°F4.7°C 65% 7.0 mph WNW11.3 kmh WNW 10.0 mph16.1 kmh 30.01 in1016.3 mb 0.00 in0.0 mm 0.00 in/hr0.0 mm/hr 0.00 in0.0 mm
05:25 AM 51.9°F11.1°C 40.9°F4.9°C 66% 9.0 mph NW14.5 kmh NW 10.0 mph16.1 kmh 30.01 in1016.3 mb 0.00 in0.0 mm 0.00 in/hr0.0 mm/hr 0.00 in0.0 mm
05:24 AM 51.9°F11.1°C 40.9°F4.9°C 66% 8.0 mph WNW12.9 kmh WNW 10.0 mph16.1 kmh 30.01 in1016.3 mb 0.00 in0.0 mm 0.00 in/hr0.0 mm/hr 0.00 in0.0 mm
05:23 AM 51.8°F11.0°C 40.8°F4.9°C 66% 8.0 mph NW12.9 kmh NW 10.0 mph16.1 kmh 30.00 in1015.9 mb 0.00 in0.0 mm 0.00 in/hr0.0 mm/hr 0.00 in0.0 mm
05:22 AM 51.9°F11.1°C 40.9°F4.9°C 66% 8.0 mph NW12.9 kmh NW 10.0 mph16.1 kmh 30.00 in1015.9 mb 0.00 in0.0 mm 0.00 in/hr0.0 mm/hr 0.00 in0.0 mm
05:21 AM 51.8°F11.0°C 40.8°F4.9°C 66% 8.0 mph NW12.9 kmh NW 10.0 mph16.1 kmh 30.00 in1015.9 mb 0.00 in0.0 mm 0.00 in/hr0.0 mm/hr 0.00 in0.0 mm
05:20 AM 51.7°F10.9°C 40.7°F4.8°C 66% 8.0 mph WNW12.9 kmh WNW 10.0 mph16.1 kmh 30.00 in1015.9 mb 0.00 in0.0 mm 0.00 in/hr0.0 mm/hr 0.00 in0.0 mm
05:19 AM 51.6°F10.9°C 40.6°F4.8°C 66% 8.0 mph NW12.9 kmh NW 10.0 mph16.1 kmh 30.00 in1015.9 mb 0.00 in0.0 mm 0.00 in/hr0.0 mm/hr 0.00 in0.0 mm
05:18 AM 51.6°F10.9°C 41.0°F5.0°C 67% 9.0 mph WNW14.5 kmh WNW 10.0 mph16.1 kmh 30.00 in1015.9 mb 0.00 in0.0 mm 0.00 in/hr0.0 mm/hr 0.00 in0.0 mm
05:17 AM 51.5°F10.8°C 40.9°F4.9°C 67% 7.0 mph NW11.3 kmh NW 10.0 mph16.1 kmh 30.00 in1015.9 mb 0.00 in0.0 mm 0.00 in/hr0.0 mm/hr 0.00 in0.0 mm
05:16 AM 51.4°F10.8°C 40.8°F4.9°C 67% 8.0 mph WNW12.9 kmh WNW 10.0 mph16.1 kmh 30.00 in1015.9 mb 0.00 in0.0 mm 0.00 in/hr0.0 mm/hr 0.00 in0.0 mm
05:15 AM 51.4°F10.8°C 41.2°F5.1°C 68% 7.0 mph WNW11.3 kmh WNW 10.0 mph16.1 kmh 30.00 in1015.9 mb 0.00 in0.0 mm 0.00 in/hr0.0 mm/hr 0.00 in0.0 mm
05:14 AM 51.2°F10.7°C 41.0°F5.0°C 68% 6.0 mph NW9.7 kmh NW 10.0 mph16.1 kmh 30.00 in1015.9 mb 0.00 in0.0 mm 0.00 in/hr0.0 mm/hr 0.00 in0.0 mm
05:13 AM 51.2°F10.7°C 41.0°F5.0°C 68% 6.0 mph NW9.7 kmh NW 9.0 mph14.5 kmh 30.00 in1015.9 mb 0.00 in0.0 mm 0.00 in/hr0.0 mm/hr 0.00 in0.0 mm
05:12 AM 51.1°F10.6°C 40.9°F4.9°C 68% 9.0 mph NW14.5 kmh NW 9.0 mph14.5 kmh 30.00 in1015.9 mb 0.00 in0.0 mm 0.00 in/hr0.0 mm/hr 0.00 in0.0 mm
05:11 AM 51.0°F10.6°C 40.8°F4.9°C 68% 6.0 mph WNW9.7 kmh WNW 8.0 mph12.9 kmh 29.99 in1015.6 mb 0.00 in0.0 mm 0.00 in/hr0.0 mm/hr 0.00 in0.0 mm
05:10 AM 50.9°F10.5°C 40.7°F4.8°C 68% 7.0 mph WNW11.3 kmh WNW 8.0 mph12.9 kmh 29.99 in1015.6 mb 0.00 in0.0 mm 0.00 in/hr0.0 mm/hr 0.00 in0.0 mm
05:09 AM 50.8°F10.4°C 41.0°F5.0°C 69% 6.0 mph NW9.7 kmh NW 8.0 mph12.9 kmh 29.99 in1015.6 mb 0.00 in0.0 mm 0.00 in/hr0.0 mm/hr 0.00 in0.0 mm
05:08 AM 50.8°F10.4°C 41.0°F5.0°C 69% 6.0 mph NW9.7 kmh NW 8.0 mph12.9 kmh 30.00 in1015.9 mb 0.00 in0.0 mm 0.00 in/hr0.0 mm/hr 0.00 in0.0 mm
05:07 AM 50.8°F10.4°C 41.0°F5.0°C 69% 7.0 mph NW11.3 kmh NW 8.0 mph12.9 kmh 30.00 in1015.9 mb 0.00 in0.0 mm 0.00 in/hr0.0 mm/hr 0.00 in0.0 mm
05:06 AM 50.7°F10.4°C 40.9°F4.9°C 69% 6.0 mph NW9.7 kmh NW 7.0 mph11.3 kmh 30.00 in1015.9 mb 0.00 in0.0 mm 0.00 in/hr0.0 mm/hr 0.00 in0.0 mm
05:05 AM 50.8°F10.4°C 41.0°F5.0°C 69% 6.0 mph WNW9.7 kmh WNW 7.0 mph11.3 kmh 30.00 in1015.9 mb 0.00 in0.0 mm 0.00 in/hr0.0 mm/hr 0.00 in0.0 mm
05:04 AM 50.8°F10.4°C 41.0°F5.0°C 69% 7.0 mph NW11.3 kmh NW 7.0 mph11.3 kmh 30.00 in1015.9 mb 0.00 in0.0 mm 0.00 in/hr0.0 mm/hr 0.00 in0.0 mm
05:03 AM 50.8°F10.4°C 40.6°F4.8°C 68% 6.0 mph NW9.7 kmh NW 7.0 mph11.3 kmh 30.00 in1015.9 mb 0.00 in0.0 mm 0.00 in/hr0.0 mm/hr 0.00 in0.0 mm
05:02 AM 50.9°F10.5°C 40.7°F4.8°C 68% 6.0 mph WNW9.7 kmh WNW 7.0 mph11.3 kmh 30.00 in1015.9 mb 0.00 in0.0 mm 0.00 in/hr0.0 mm/hr 0.00 in0.0 mm
05:01 AM 50.9°F10.5°C 40.7°F4.8°C 68% 6.0 mph WNW9.7 kmh WNW 10.0 mph16.1 kmh 30.00 in1015.9 mb 0.00 in0.0 mm 0.00 in/hr0.0 mm/hr 0.00 in0.0 mm
05:00 AM 50.9°F10.5°C 40.7°F4.8°C 68% 6.0 mph NW9.7 kmh NW 10.0 mph16.1 kmh 30.00 in1015.9 mb 0.00 in0.0 mm 0.00 in/hr0.0 mm/hr 0.00 in0.0 mm
04:59 AM 50.9°F10.5°C 40.7°F4.8°C 68% 8.0 mph WNW12.9 kmh WNW 10.0 mph16.1 kmh 30.00 in1015.9 mb 0.00 in0.0 mm 0.00 in/hr0.0 mm/hr 0.00 in0.0 mm
04:58 AM 50.9°F10.5°C 40.7°F4.8°C 68% 6.0 mph WNW9.7 kmh WNW 10.0 mph16.1 kmh 30.00 in1015.9 mb 0.00 in0.0 mm 0.00 in/hr0.0 mm/hr 0.00 in0.0 mm
04:57 AM 50.9°F10.5°C 40.7°F4.8°C 68% 5.0 mph WNW8.0 kmh WNW 10.0 mph16.1 kmh 30.00 in1015.9 mb 0.00 in0.0 mm 0.00 in/hr0.0 mm/hr 0.00 in0.0 mm
04:56 AM 50.9°F10.5°C 40.7°F4.8°C 68% 6.0 mph WNW9.7 kmh WNW 10.0 mph16.1 kmh 30.00 in1015.9 mb 0.00 in0.0 mm 0.00 in/hr0.0 mm/hr 0.00 in0.0 mm
04:55 AM 50.9°F10.5°C 40.7°F4.8°C 68% 5.0 mph NW8.0 kmh NW 10.0 mph16.1 kmh 30.00 in1015.9 mb 0.00 in0.0 mm 0.00 in/hr0.0 mm/hr 0.00 in0.0 mm
04:54 AM 50.9°F10.5°C 40.7°F4.8°C 68% 6.0 mph NW9.7 kmh NW 10.0 mph16.1 kmh 30.00 in1015.9 mb 0.00 in0.0 mm 0.00 in/hr0.0 mm/hr 0.00 in0.0 mm
04:53 AM 50.9°F10.5°C 40.7°F4.8°C 68% 6.0 mph WNW9.7 kmh WNW 10.0 mph16.1 kmh 30.00 in1015.9 mb 0.00 in0.0 mm 0.00 in/hr0.0 mm/hr 0.00 in0.0 mm
04:52 AM 50.9°F10.5°C 41.1°F5.1°C 69% 5.0 mph WNW8.0 kmh WNW 10.0 mph16.1 kmh 30.00 in1015.9 mb 0.00 in0.0 mm 0.00 in/hr0.0 mm/hr 0.00 in0.0 mm
04:51 AM 51.0°F10.6°C 40.8°F4.9°C 68% 6.0 mph NW9.7 kmh NW 10.0 mph16.1 kmh 30.00 in1015.9 mb 0.00 in0.0 mm 0.00 in/hr0.0 mm/hr 0.00 in0.0 mm
04:50 AM 51.0°F10.6°C 40.8°F4.9°C 68% 6.0 mph WNW9.7 kmh WNW 10.0 mph16.1 kmh 30.00 in1015.9 mb 0.00 in0.0 mm 0.00 in/hr0.0 mm/hr 0.00 in0.0 mm
04:49 AM 51.0°F10.6°C 41.2°F5.1°C 69% 5.0 mph WNW8.0 kmh WNW 10.0 mph16.1 kmh 30.00 in1015.9 mb 0.00 in0.0 mm 0.00 in/hr0.0 mm/hr 0.00 in0.0 mm
04:48 AM 51.0°F10.6°C 41.2°F5.1°C 69% 6.0 mph WNW9.7 kmh WNW 10.0 mph16.1 kmh 30.00 in1015.9 mb 0.00 in0.0 mm 0.00 in/hr0.0 mm/hr 0.00 in0.0 mm
04:47 AM 51.0°F10.6°C 41.2°F5.1°C 69% 6.0 mph WNW9.7 kmh WNW 10.0 mph16.1 kmh 29.99 in1015.6 mb 0.00 in0.0 mm 0.00 in/hr0.0 mm/hr 0.00 in0.0 mm
04:46 AM 51.0°F10.6°C 41.2°F5.1°C 69% 7.0 mph NW11.3 kmh NW 10.0 mph16.1 kmh 29.99 in1015.6 mb 0.00 in0.0 mm 0.00 in/hr0.0 mm/hr 0.00 in0.0 mm
04:45 AM 50.9°F10.5°C 41.1°F5.1°C 69% 6.0 mph WNW9.7 kmh WNW 10.0 mph16.1 kmh 29.99 in1015.6 mb 0.00 in0.0 mm 0.00 in/hr0.0 mm/hr 0.00 in0.0 mm
04:44 AM 51.0°F10.6°C 41.2°F5.1°C 69% 7.0 mph NW11.3 kmh NW 10.0 mph16.1 kmh 30.00 in1015.9 mb 0.00 in0.0 mm 0.00 in/hr0.0 mm/hr 0.00 in0.0 mm
04:43 AM 51.0°F10.6°C 41.2°F5.1°C 69% 6.0 mph WNW9.7 kmh WNW 10.0 mph16.1 kmh 30.00 in1015.9 mb 0.00 in0.0 mm 0.00 in/hr0.0 mm/hr 0.00 in0.0 mm
04:42 AM 51.0°F10.6°C 41.2°F5.1°C 69% 6.0 mph WNW9.7 kmh WNW 10.0 mph16.1 kmh 30.00 in1015.9 mb 0.00 in0.0 mm 0.00 in/hr0.0 mm/hr 0.00 in0.0 mm
04:41 AM 51.1°F10.6°C 41.3°F5.2°C 69% 7.0 mph WNW11.3 kmh WNW 10.0 mph16.1 kmh 30.00 in1015.9 mb 0.00 in0.0 mm 0.00 in/hr0.0 mm/hr 0.00 in0.0 mm
04:40 AM 51.1°F10.6°C 41.3°F5.2°C 69% 7.0 mph WNW11.3 kmh WNW 10.0 mph16.1 kmh 29.99 in1015.6 mb 0.00 in0.0 mm 0.00 in/hr0.0 mm/hr 0.00 in0.0 mm
04:39 AM 51.2°F10.7°C 41.4°F5.2°C 69% 6.0 mph WNW9.7 kmh WNW 10.0 mph16.1 kmh 29.99 in1015.6 mb 0.00 in0.0 mm 0.00 in/hr0.0 mm/hr 0.00 in0.0 mm
04:38 AM 51.3°F10.7°C 41.5°F5.3°C 69% 6.0 mph WNW9.7 kmh WNW 10.0 mph16.1 kmh 30.00 in1015.9 mb 0.00 in0.0 mm 0.00 in/hr0.0 mm/hr 0.00 in0.0 mm
04:37 AM 51.4°F10.8°C 41.6°F5.3°C 69% 6.0 mph NW9.7 kmh NW 10.0 mph16.1 kmh 30.00 in1015.9 mb 0.00 in0.0 mm 0.00 in/hr0.0 mm/hr 0.00 in0.0 mm
04:36 AM 51.4°F10.8°C 41.6°F5.3°C 69% 7.0 mph NW11.3 kmh NW 10.0 mph16.1 kmh 30.00 in1015.9 mb 0.00 in0.0 mm 0.00 in/hr0.0 mm/hr 0.00 in0.0 mm
04:35 AM 51.4°F10.8°C 41.6°F5.3°C 69% 7.0 mph NW11.3 kmh NW 10.0 mph16.1 kmh 30.00 in1015.9 mb 0.00 in0.0 mm 0.00 in/hr0.0 mm/hr 0.00 in0.0 mm
04:34 AM 51.5°F10.8°C 41.7°F5.4°C 69% 6.0 mph WNW9.7 kmh WNW 10.0 mph16.1 kmh 30.00 in1015.9 mb 0.00 in0.0 mm 0.00 in/hr0.0 mm/hr 0.00 in0.0 mm
04:33 AM 51.5°F10.8°C 41.7°F5.4°C 69% 6.0 mph WNW9.7 kmh WNW 10.0 mph16.1 kmh 30.00 in1015.9 mb 0.00 in0.0 mm 0.00 in/hr0.0 mm/hr 0.00 in0.0 mm
04:31 AM 51.4°F10.8°C 41.6°F5.3°C 69% 9.0 mph NW14.5 kmh NW 9.0 mph14.5 kmh 30.00 in1015.9 mb 0.00 in0.0 mm 0.00 in/hr0.0 mm/hr 0.00 in0.0 mm
04:30 AM 51.4°F10.8°C 41.6°F5.3°C 69% 6.0 mph WNW9.7 kmh WNW 9.0 mph14.5 kmh 29.99 in1015.6 mb 0.00 in0.0 mm 0.00 in/hr0.0 mm/hr 0.00 in0.0 mm
04:29 AM 51.4°F10.8°C 41.6°F5.3°C 69% 7.0 mph WNW11.3 kmh WNW 9.0 mph14.5 kmh 29.99 in1015.6 mb 0.00 in0.0 mm 0.00 in/hr0.0 mm/hr 0.00 in0.0 mm
04:28 AM 51.4°F10.8°C 41.6°F5.3°C 69% 6.0 mph WNW9.7 kmh WNW 9.0 mph14.5 kmh 29.99 in1015.6 mb 0.00 in0.0 mm 0.00 in/hr0.0 mm/hr 0.00 in0.0 mm
04:27 AM 51.3°F10.7°C 41.5°F5.3°C 69% 6.0 mph NW9.7 kmh NW 9.0 mph14.5 kmh 29.99 in1015.6 mb 0.00 in0.0 mm 0.00 in/hr0.0 mm/hr 0.00 in0.0 mm
04:26 AM 51.3°F10.7°C 41.9°F5.5°C 70% 5.0 mph W8.0 kmh W 9.0 mph14.5 kmh 29.99 in1015.6 mb 0.00 in0.0 mm 0.00 in/hr0.0 mm/hr 0.00 in0.0 mm
04:25 AM 51.3°F10.7°C 41.9°F5.5°C 70% 6.0 mph WNW9.7 kmh WNW 9.0 mph14.5 kmh 29.99 in1015.6 mb 0.00 in0.0 mm 0.00 in/hr0.0 mm/hr 0.00 in0.0 mm
04:24 AM 51.2°F10.7°C 41.8°F5.4°C 70% 7.0 mph WNW11.3 kmh WNW 9.0 mph14.5 kmh 29.99 in1015.6 mb 0.00 in0.0 mm 0.00 in/hr0.0 mm/hr 0.00 in0.0 mm
04:23 AM 51.2°F10.7°C 41.8°F5.4°C 70% 7.0 mph WNW11.3 kmh WNW 9.0 mph14.5 kmh 29.99 in1015.6 mb 0.00 in0.0 mm 0.00 in/hr0.0 mm/hr 0.00 in0.0 mm
04:22 AM 51.2°F10.7°C 41.8°F5.4°C 70% 6.0 mph WNW9.7 kmh WNW 9.0 mph14.5 kmh 29.99 in1015.6 mb 0.00 in0.0 mm 0.00 in/hr0.0 mm/hr 0.00 in0.0 mm
04:21 AM 51.2°F10.7°C 41.8°F5.4°C 70% 6.0 mph WNW9.7 kmh WNW 9.0 mph14.5 kmh 29.99 in1015.6 mb 0.00 in0.0 mm 0.00 in/hr0.0 mm/hr 0.00 in0.0 mm
04:20 AM 51.1°F10.6°C 41.7°F5.4°C 70% 6.0 mph WNW9.7 kmh WNW 9.0 mph14.5 kmh 29.99 in1015.6 mb 0.00 in0.0 mm 0.00 in/hr0.0 mm/hr 0.00 in0.0 mm
04:19 AM 51.1°F10.6°C 41.7°F5.4°C 70% 6.0 mph WNW9.7 kmh WNW 9.0 mph14.5 kmh 29.99 in1015.6 mb 0.00 in0.0 mm 0.00 in/hr0.0 mm/hr 0.00 in0.0 mm
04:18 AM 51.1°F10.6°C 41.7°F5.4°C 70% 6.0 mph WNW9.7 kmh WNW 9.0 mph14.5 kmh 29.99 in1015.6 mb 0.00 in0.0 mm 0.00 in/hr0.0 mm/hr 0.00 in0.0 mm
04:17 AM 51.1°F10.6°C 41.7°F5.4°C 70% 6.0 mph WNW9.7 kmh WNW 9.0 mph14.5 kmh 29.99 in1015.6 mb 0.00 in0.0 mm 0.00 in/hr0.0 mm/hr 0.00 in0.0 mm
04:16 AM 51.1°F10.6°C 42.0°F5.6°C 71% 7.0 mph WNW11.3 kmh WNW 8.0 mph12.9 kmh 29.98 in1015.2 mb 0.00 in0.0 mm 0.00 in/hr0.0 mm/hr 0.00 in0.0 mm
04:15 AM 51.1°F10.6°C 42.0°F5.6°C 71% 7.0 mph W11.3 kmh W 8.0 mph12.9 kmh 29.98 in1015.2 mb 0.00 in0.0 mm 0.00 in/hr0.0 mm/hr 0.00 in0.0 mm
04:14 AM 51.1°F10.6°C 42.0°F5.6°C 71% 7.0 mph NW11.3 kmh NW 8.0 mph12.9 kmh 29.98 in1015.2 mb 0.00 in0.0 mm 0.00 in/hr0.0 mm/hr 0.00 in0.0 mm
04:13 AM 51.1°F10.6°C 42.0°F5.6°C 71% 7.0 mph WNW11.3 kmh WNW 8.0 mph12.9 kmh 29.98 in1015.2 mb 0.00 in0.0 mm 0.00 in/hr0.0 mm/hr 0.00 in0.0 mm
04:12 AM 51.2°F10.7°C 42.1°F5.6°C 71% 7.0 mph WNW11.3 kmh WNW 8.0 mph12.9 kmh 29.98 in1015.2 mb 0.00 in0.0 mm 0.00 in/hr0.0 mm/hr 0.00 in0.0 mm
04:11 AM 51.2°F10.7°C 42.1°F5.6°C 71% 7.0 mph WNW11.3 kmh WNW 8.0 mph12.9 kmh 29.98 in1015.2 mb 0.00 in0.0 mm 0.00 in/hr0.0 mm/hr 0.00 in0.0 mm
04:10 AM 51.2°F10.7°C 42.1°F5.6°C 71% 6.0 mph WNW9.7 kmh WNW 8.0 mph12.9 kmh 29.98 in1015.2 mb 0.00 in0.0 mm 0.00 in/hr0.0 mm/hr 0.00 in0.0 mm
04:09 AM 51.3°F10.7°C 42.2°F5.7°C 71% 6.0 mph WNW9.7 kmh WNW 8.0 mph12.9 kmh 29.98 in1015.2 mb 0.00 in0.0 mm 0.00 in/hr0.0 mm/hr 0.00 in0.0 mm
04:08 AM 51.3°F10.7°C 42.2°F5.7°C 71% 5.0 mph WNW8.0 kmh WNW 8.0 mph12.9 kmh 29.98 in1015.2 mb 0.00 in0.0 mm 0.00 in/hr0.0 mm/hr 0.00 in0.0 mm
04:07 AM 51.4°F10.8°C 42.3°F5.7°C 71% 7.0 mph WNW11.3 kmh WNW 8.0 mph12.9 kmh 29.98 in1015.2 mb 0.00 in0.0 mm 0.00 in/hr0.0 mm/hr 0.00 in0.0 mm
04:06 AM 51.4°F10.8°C 42.3°F5.7°C 71% 6.0 mph NW9.7 kmh NW 8.0 mph12.9 kmh 29.98 in1015.2 mb 0.00 in0.0 mm 0.00 in/hr0.0 mm/hr 0.00 in0.0 mm
04:05 AM 51.5°F10.8°C 42.4°F5.8°C 71% 6.0 mph WNW9.7 kmh WNW 8.0 mph12.9 kmh 29.98 in1015.2 mb 0.00 in0.0 mm 0.00 in/hr0.0 mm/hr 0.00 in0.0 mm
04:04 AM 51.6°F10.9°C 42.5°F5.8°C 71% 5.0 mph WNW8.0 kmh WNW 8.0 mph12.9 kmh 29.98 in1015.2 mb 0.00 in0.0 mm 0.00 in/hr0.0 mm/hr 0.00 in0.0 mm
04:03 AM 51.6°F10.9°C 42.5°F5.8°C 71% 6.0 mph WNW9.7 kmh WNW 8.0 mph12.9 kmh 29.98 in1015.2 mb 0.00 in0.0 mm 0.00 in/hr0.0 mm/hr 0.00 in0.0 mm
04:02 AM 51.7°F10.9°C 42.6°F5.9°C 71% 7.0 mph WNW11.3 kmh WNW 8.0 mph12.9 kmh 29.98 in1015.2 mb 0.00 in0.0 mm 0.00 in/hr0.0 mm/hr 0.00 in0.0 mm
04:01 AM 51.7°F10.9°C 42.6°F5.9°C 71% 6.0 mph WNW9.7 kmh WNW 9.0 mph14.5 kmh 29.98 in1015.2 mb 0.00 in0.0 mm 0.00 in/hr0.0 mm/hr 0.00 in0.0 mm
04:00 AM 51.8°F11.0°C 42.7°F5.9°C 71% 6.0 mph WNW9.7 kmh WNW 9.0 mph14.5 kmh 29.98 in1015.2 mb 0.00 in0.0 mm 0.00 in/hr0.0 mm/hr 0.00 in0.0 mm
03:59 AM 51.8°F11.0°C 43.1°F6.2°C 72% 7.0 mph WNW11.3 kmh WNW 9.0 mph14.5 kmh 29.98 in1015.2 mb 0.00 in0.0 mm 0.00 in/hr0.0 mm/hr 0.00 in0.0 mm
03:58 AM 51.9°F11.1°C 43.2°F6.2°C 72% 5.0 mph WNW8.0 kmh WNW 9.0 mph14.5 kmh 29.98 in1015.2 mb 0.00 in0.0 mm 0.00 in/hr0.0 mm/hr 0.00 in0.0 mm
03:57 AM 51.9°F11.1°C 43.2°F6.2°C 72% 6.0 mph WNW9.7 kmh WNW 9.0 mph14.5 kmh 29.98 in1015.2 mb 0.00 in0.0 mm 0.00 in/hr0.0 mm/hr 0.00 in0.0 mm
03:56 AM 51.9°F11.1°C 43.2°F6.2°C 72% 4.0 mph WNW6.4 kmh WNW 9.0 mph14.5 kmh 29.98 in1015.2 mb 0.00 in0.0 mm 0.00 in/hr0.0 mm/hr 0.00 in0.0 mm
03:55 AM 51.9°F11.1°C 43.2°F6.2°C 72% 6.0 mph WNW9.7 kmh WNW 9.0 mph14.5 kmh 29.98 in1015.2 mb 0.00 in0.0 mm 0.00 in/hr0.0 mm/hr 0.00 in0.0 mm
03:54 AM 52.0°F11.1°C 43.3°F6.3°C 72% 7.0 mph WNW11.3 kmh WNW 9.0 mph14.5 kmh 29.98 in1015.2 mb 0.00 in0.0 mm 0.00 in/hr0.0 mm/hr 0.00 in0.0 mm
03:53 AM 52.0°F11.1°C 43.3°F6.3°C 72% 5.0 mph WNW8.0 kmh WNW 9.0 mph14.5 kmh 29.98 in1015.2 mb 0.00 in0.0 mm 0.00 in/hr0.0 mm/hr 0.00 in0.0 mm
03:52 AM 52.1°F11.2°C 43.4°F6.3°C 72% 6.0 mph WNW9.7 kmh WNW 9.0 mph14.5 kmh 29.97 in1014.9 mb 0.00 in0.0 mm 0.00 in/hr0.0 mm/hr 0.00 in0.0 mm
03:51 AM 52.1°F11.2°C 43.4°F6.3°C 72% 5.0 mph WNW8.0 kmh WNW 9.0 mph14.5 kmh 29.98 in1015.2 mb 0.00 in0.0 mm 0.00 in/hr0.0 mm/hr 0.00 in0.0 mm
03:50 AM 52.1°F11.2°C 43.4°F6.3°C 72% 6.0 mph WNW9.7 kmh WNW 9.0 mph14.5 kmh 29.97 in1014.9 mb 0.00 in0.0 mm 0.00 in/hr0.0 mm/hr 0.00 in0.0 mm
03:49 AM 52.2°F11.2°C 43.5°F6.4°C 72% 7.0 mph WNW11.3 kmh WNW 9.0 mph14.5 kmh 29.97 in1014.9 mb 0.00 in0.0 mm 0.00 in/hr0.0 mm/hr 0.00 in0.0 mm
03:48 AM 52.1°F11.2°C 43.4°F6.3°C 72% 6.0 mph NW9.7 kmh NW 9.0 mph14.5 kmh 29.97 in1014.9 mb 0.00 in0.0 mm 0.00 in/hr0.0 mm/hr 0.00 in0.0 mm
03:47 AM 52.2°F11.2°C 43.5°F6.4°C 72% 5.0 mph WNW8.0 kmh WNW 9.0 mph14.5 kmh 29.97 in1014.9 mb 0.00 in0.0 mm 0.00 in/hr0.0 mm/hr 0.00 in0.0 mm
03:46 AM 52.2°F11.2°C 43.5°F6.4°C 72% 8.0 mph WNW12.9 kmh WNW 9.0 mph14.5 kmh 29.98 in1015.2 mb 0.00 in0.0 mm 0.00 in/hr0.0 mm/hr 0.00 in0.0 mm
03:45 AM 52.2°F11.2°C 43.5°F6.4°C 72% 6.0 mph WNW9.7 kmh WNW 9.0 mph14.5 kmh 29.98 in1015.2 mb 0.00 in0.0 mm 0.00 in/hr0.0 mm/hr 0.00 in0.0 mm
03:44 AM 52.2°F11.2°C 43.5°F6.4°C 72% 6.0 mph WNW9.7 kmh WNW 9.0 mph14.5 kmh 29.98 in1015.2 mb 0.00 in0.0 mm 0.00 in/hr0.0 mm/hr 0.00 in0.0 mm
03:43 AM 52.2°F11.2°C 43.5°F6.4°C 72% 7.0 mph WNW11.3 kmh WNW 9.0 mph14.5 kmh 29.98 in1015.2 mb 0.00 in0.0 mm 0.00 in/hr0.0 mm/hr 0.00 in0.0 mm
03:42 AM 52.1°F11.2°C 43.4°F6.3°C 72% 7.0 mph WNW11.3 kmh WNW 9.0 mph14.5 kmh 29.98 in1015.2 mb 0.00 in0.0 mm 0.00 in/hr0.0 mm/hr 0.00 in0.0 mm
03:41 AM 52.1°F11.2°C 43.7°F6.5°C 73% 7.0 mph WNW11.3 kmh WNW 9.0 mph14.5 kmh 29.98 in1015.2 mb 0.00 in0.0 mm 0.00 in/hr0.0 mm/hr 0.00 in0.0 mm
03:40 AM 52.1°F11.2°C 43.7°F6.5°C 73% 5.0 mph WNW8.0 kmh WNW 9.0 mph14.5 kmh 29.98 in1015.2 mb 0.00 in0.0 mm 0.00 in/hr0.0 mm/hr 0.00 in0.0 mm
03:39 AM 52.1°F11.2°C 43.7°F6.5°C 73% 6.0 mph WNW9.7 kmh WNW 9.0 mph14.5 kmh 29.98 in1015.2 mb 0.00 in0.0 mm 0.00 in/hr0.0 mm/hr 0.00 in0.0 mm
03:38 AM 52.1°F11.2°C 43.7°F6.5°C 73% 7.0 mph WNW11.3 kmh WNW 9.0 mph14.5 kmh 29.98 in1015.2 mb 0.00 in0.0 mm 0.00 in/hr0.0 mm/hr 0.00 in0.0 mm
03:37 AM 52.1°F11.2°C 44.1°F6.7°C 74% 8.0 mph WNW12.9 kmh WNW 9.0 mph14.5 kmh 29.98 in1015.2 mb 0.00 in0.0 mm 0.00 in/hr0.0 mm/hr 0.00 in0.0 mm
03:36 AM 52.0°F11.1°C 44.0°F6.7°C 74% 8.0 mph WNW12.9 kmh WNW 8.0 mph12.9 kmh 29.98 in1015.2 mb 0.00 in0.0 mm 0.00 in/hr0.0 mm/hr 0.00 in0.0 mm
03:35 AM 52.0°F11.1°C 44.0°F6.7°C 74% 7.0 mph NW11.3 kmh NW 8.0 mph12.9 kmh 29.98 in1015.2 mb 0.00 in0.0 mm 0.00 in/hr0.0 mm/hr 0.00 in0.0 mm
03:34 AM 52.0°F11.1°C 44.0°F6.7°C 74% 7.0 mph WNW11.3 kmh WNW 7.0 mph11.3 kmh 29.98 in1015.2 mb 0.00 in0.0 mm 0.00 in/hr0.0 mm/hr 0.00 in0.0 mm
03:33 AM 52.0°F11.1°C 44.0°F6.7°C 74% 6.0 mph NW9.7 kmh NW 7.0 mph11.3 kmh 29.98 in1015.2 mb 0.00 in0.0 mm 0.00 in/hr0.0 mm/hr 0.00 in0.0 mm
03:32 AM 51.9°F11.1°C 43.9°F6.6°C 74% 6.0 mph NW9.7 kmh NW 7.0 mph11.3 kmh 29.98 in1015.2 mb 0.00 in0.0 mm 0.00 in/hr0.0 mm/hr 0.00 in0.0 mm
03:31 AM 51.9°F11.1°C 43.9°F6.6°C 74% 6.0 mph WNW9.7 kmh WNW 7.0 mph11.3 kmh 29.98 in1015.2 mb 0.00 in0.0 mm 0.00 in/hr0.0 mm/hr 0.00 in0.0 mm
03:30 AM 51.9°F11.1°C 43.9°F6.6°C 74% 6.0 mph NW9.7 kmh NW 7.0 mph11.3 kmh 29.98 in1015.2 mb 0.00 in0.0 mm 0.00 in/hr0.0 mm/hr 0.00 in0.0 mm
03:29 AM 51.9°F11.1°C 43.5°F6.4°C 73% 5.0 mph WNW8.0 kmh WNW 7.0 mph11.3 kmh 29.98 in1015.2 mb 0.00 in0.0 mm 0.00 in/hr0.0 mm/hr 0.00 in0.0 mm
03:28 AM 51.9°F11.1°C 43.5°F6.4°C 73% 6.0 mph NW9.7 kmh NW 7.0 mph11.3 kmh 29.98 in1015.2 mb 0.00 in0.0 mm 0.00 in/hr0.0 mm/hr 0.00 in0.0 mm
03:27 AM 52.0°F11.1°C 43.6°F6.4°C 73% 5.0 mph NW8.0 kmh NW 7.0 mph11.3 kmh 29.98 in1015.2 mb 0.00 in0.0 mm 0.00 in/hr0.0 mm/hr 0.00 in0.0 mm
03:26 AM 52.0°F11.1°C 43.6°F6.4°C 73% 5.0 mph NW8.0 kmh NW 7.0 mph11.3 kmh 29.98 in1015.2 mb 0.00 in0.0 mm 0.00 in/hr0.0 mm/hr 0.00 in0.0 mm
03:25 AM 52.1°F11.2°C 43.7°F6.5°C 73% 4.0 mph NW6.4 kmh NW 7.0 mph11.3 kmh 29.99 in1015.6 mb 0.00 in0.0 mm 0.00 in/hr0.0 mm/hr 0.00 in0.0 mm
03:24 AM 52.1°F11.2°C 43.7°F6.5°C 73% 4.0 mph WNW6.4 kmh WNW 7.0 mph11.3 kmh 29.99 in1015.6 mb 0.00 in0.0 mm 0.00 in/hr0.0 mm/hr 0.00 in0.0 mm
03:23 AM 52.1°F11.2°C 43.7°F6.5°C 73% 3.0 mph WNW4.8 kmh WNW 7.0 mph11.3 kmh 29.99 in1015.6 mb 0.00 in0.0 mm 0.00 in/hr0.0 mm/hr 0.00 in0.0 mm
03:22 AM 52.1°F11.2°C 43.7°F6.5°C 73% 5.0 mph WNW8.0 kmh WNW 7.0 mph11.3 kmh 29.99 in1015.6 mb 0.00 in0.0 mm 0.00 in/hr0.0 mm/hr 0.00 in0.0 mm
03:21 AM 52.1°F11.2°C 43.7°F6.5°C 73% 6.0 mph W9.7 kmh W 7.0 mph11.3 kmh 29.98 in1015.2 mb 0.00 in0.0 mm 0.00 in/hr0.0 mm/hr 0.00 in0.0 mm
03:20 AM 52.0°F11.1°C 43.6°F6.4°C 73% 5.0 mph NW8.0 kmh NW 7.0 mph11.3 kmh 29.98 in1015.2 mb 0.00 in0.0 mm 0.00 in/hr0.0 mm/hr 0.00 in0.0 mm
03:19 AM 52.0°F11.1°C 43.6°F6.4°C 73% 5.0 mph WNW8.0 kmh WNW 7.0 mph11.3 kmh 29.98 in1015.2 mb 0.00 in0.0 mm 0.00 in/hr0.0 mm/hr 0.00 in0.0 mm
03:18 AM 52.0°F11.1°C 43.6°F6.4°C 73% 4.0 mph WNW6.4 kmh WNW 6.0 mph9.7 kmh 29.98 in1015.2 mb 0.00 in0.0 mm 0.00 in/hr0.0 mm/hr 0.00 in0.0 mm
03:17 AM 52.0°F11.1°C 43.6°F6.4°C 73% 5.0 mph WNW8.0 kmh WNW 6.0 mph9.7 kmh 29.98 in1015.2 mb 0.00 in0.0 mm 0.00 in/hr0.0 mm/hr 0.00 in0.0 mm
03:16 AM 52.1°F11.2°C 43.7°F6.5°C 73% 5.0 mph W8.0 kmh W 6.0 mph9.7 kmh 29.98 in1015.2 mb 0.00 in0.0 mm 0.00 in/hr0.0 mm/hr 0.00 in0.0 mm
03:15 AM 52.1°F11.2°C 43.7°F6.5°C 73% 3.0 mph NW4.8 kmh NW 6.0 mph9.7 kmh 29.98 in1015.2 mb 0.00 in0.0 mm 0.00 in/hr0.0 mm/hr 0.00 in0.0 mm
03:14 AM 52.2°F11.2°C 43.8°F6.6°C 73% 2.0 mph WNW3.2 kmh WNW 6.0 mph9.7 kmh 29.98 in1015.2 mb 0.00 in0.0 mm 0.00 in/hr0.0 mm/hr 0.00 in0.0 mm
03:13 AM 52.2°F11.2°C 43.8°F6.6°C 73% 4.0 mph WSW6.4 kmh WSW 6.0 mph9.7 kmh 29.98 in1015.2 mb 0.00 in0.0 mm 0.00 in/hr0.0 mm/hr 0.00 in0.0 mm
03:12 AM 52.3°F11.3°C 43.9°F6.6°C 73% Calm Calm 5.0 mph8.0 kmh 29.98 in1015.2 mb 0.00 in0.0 mm 0.00 in/hr0.0 mm/hr 0.00 in0.0 mm
03:11 AM 52.3°F11.3°C 43.9°F6.6°C 73% 3.0 mph WNW4.8 kmh WNW 5.0 mph8.0 kmh 29.98 in1015.2 mb 0.00 in0.0 mm 0.00 in/hr0.0 mm/hr 0.00 in0.0 mm
03:10 AM 52.4°F11.3°C 44.0°F6.7°C 73% 2.0 mph NW3.2 kmh NW 4.0 mph6.4 kmh 29.98 in1015.2 mb 0.00 in0.0 mm 0.00 in/hr0.0 mm/hr 0.00 in0.0 mm
03:09 AM 52.4°F11.3°C 43.7°F6.5°C 72% 3.0 mph WSW4.8 kmh WSW 4.0 mph6.4 kmh 29.98 in1015.2 mb 0.00 in0.0 mm 0.00 in/hr0.0 mm/hr 0.00 in0.0 mm
03:08 AM 52.5°F11.4°C 43.8°F6.6°C 72% 1.0 mph W1.6 kmh W 4.0 mph6.4 kmh 29.98 in1015.2 mb 0.00 in0.0 mm 0.00 in/hr0.0 mm/hr 0.00 in0.0 mm
03:07 AM 52.5°F11.4°C 43.8°F6.6°C 72% 2.0 mph WSW3.2 kmh WSW 4.0 mph6.4 kmh 29.98 in1015.2 mb 0.00 in0.0 mm 0.00 in/hr0.0 mm/hr 0.00 in0.0 mm
03:06 AM 52.6°F11.4°C 43.8°F6.6°C 72% 3.0 mph WNW4.8 kmh WNW 4.0 mph6.4 kmh 29.98 in1015.2 mb 0.00 in0.0 mm 0.00 in/hr0.0 mm/hr 0.00 in0.0 mm
03:05 AM 52.7°F11.5°C 43.9°F6.6°C 72% 2.0 mph WSW3.2 kmh WSW 4.0 mph6.4 kmh 29.98 in1015.2 mb 0.00 in0.0 mm 0.00 in/hr0.0 mm/hr 0.00 in0.0 mm
03:04 AM 52.7°F11.5°C 43.9°F6.6°C 72% 2.0 mph WSW3.2 kmh WSW 4.0 mph6.4 kmh 29.98 in1015.2 mb 0.00 in0.0 mm 0.00 in/hr0.0 mm/hr 0.00 in0.0 mm
03:03 AM 52.8°F11.6°C 44.0°F6.7°C 72% 1.0 mph W1.6 kmh W 4.0 mph6.4 kmh 29.98 in1015.2 mb 0.00 in0.0 mm 0.00 in/hr0.0 mm/hr 0.00 in0.0 mm
03:02 AM 52.8°F11.6°C 44.0°F6.7°C 72% 2.0 mph WSW3.2 kmh WSW 4.0 mph6.4 kmh 29.98 in1015.2 mb 0.00 in0.0 mm 0.00 in/hr0.0 mm/hr 0.00 in0.0 mm
03:01 AM 52.9°F11.6°C 44.1°F6.7°C 72% 1.0 mph WNW1.6 kmh WNW 7.0 mph11.3 kmh 29.98 in1015.2 mb 0.00 in0.0 mm 0.00 in/hr0.0 mm/hr 0.00 in0.0 mm
03:00 AM 52.9°F11.6°C 44.1°F6.7°C 72% 3.0 mph WNW4.8 kmh WNW 7.0 mph11.3 kmh 29.98 in1015.2 mb 0.00 in0.0 mm 0.00 in/hr0.0 mm/hr 0.00 in0.0 mm
02:59 AM 53.0°F11.7°C 44.2°F6.8°C 72% 4.0 mph WNW6.4 kmh WNW 7.0 mph11.3 kmh 29.98 in1015.2 mb 0.00 in0.0 mm 0.00 in/hr0.0 mm/hr 0.00 in0.0 mm
02:58 AM 53.0°F11.7°C 44.2°F6.8°C 72% 1.0 mph W1.6 kmh W 7.0 mph11.3 kmh 29.98 in1015.2 mb 0.00 in0.0 mm 0.00 in/hr0.0 mm/hr 0.00 in0.0 mm
02:57 AM 53.1°F11.7°C 44.3°F6.8°C 72% 2.0 mph NW3.2 kmh NW 7.0 mph11.3 kmh 29.98 in1015.2 mb 0.00 in0.0 mm 0.00 in/hr0.0 mm/hr 0.00 in0.0 mm
02:56 AM 53.1°F11.7°C 44.0°F6.7°C 71% 2.0 mph NW3.2 kmh NW 7.0 mph11.3 kmh 29.98 in1015.2 mb 0.00 in0.0 mm 0.00 in/hr0.0 mm/hr 0.00 in0.0 mm
02:55 AM 53.1°F11.7°C 44.0°F6.7°C 71% 2.0 mph W3.2 kmh W 7.0 mph11.3 kmh 29.98 in1015.2 mb 0.00 in0.0 mm 0.00 in/hr0.0 mm/hr 0.00 in0.0 mm
02:54 AM 53.2°F11.8°C 44.1°F6.7°C 71% 2.0 mph W3.2 kmh W 7.0 mph11.3 kmh 29.98 in1015.2 mb 0.00 in0.0 mm 0.00 in/hr0.0 mm/hr 0.00 in0.0 mm
02:53 AM 53.2°F11.8°C 44.1°F6.7°C 71% 3.0 mph WNW4.8 kmh WNW 7.0 mph11.3 kmh 29.98 in1015.2 mb 0.00 in0.0 mm 0.00 in/hr0.0 mm/hr 0.00 in0.0 mm
02:52 AM 53.3°F11.8°C 44.2°F6.8°C 71% 3.0 mph W4.8 kmh W 7.0 mph11.3 kmh 29.98 in1015.2 mb 0.00 in0.0 mm 0.00 in/hr0.0 mm/hr 0.00 in0.0 mm
02:51 AM 53.3°F11.8°C 44.2°F6.8°C 71% 2.0 mph W3.2 kmh W 7.0 mph11.3 kmh 29.98 in1015.2 mb 0.00 in0.0 mm 0.00 in/hr0.0 mm/hr 0.00 in0.0 mm
02:50 AM 53.3°F11.8°C 44.2°F6.8°C 71% 4.0 mph WNW6.4 kmh WNW 7.0 mph11.3 kmh 29.98 in1015.2 mb 0.00 in0.0 mm 0.00 in/hr0.0 mm/hr 0.00 in0.0 mm
02:49 AM 53.3°F11.8°C 44.2°F6.8°C 71% 2.0 mph WSW3.2 kmh WSW 7.0 mph11.3 kmh 29.98 in1015.2 mb 0.00 in0.0 mm 0.00 in/hr0.0 mm/hr 0.00 in0.0 mm
02:48 AM 53.3°F11.8°C 44.2°F6.8°C 71% 3.0 mph W4.8 kmh W 7.0 mph11.3 kmh 29.97 in1014.9 mb 0.00 in0.0 mm 0.00 in/hr0.0 mm/hr 0.00 in0.0 mm
02:47 AM 53.3°F11.8°C 44.2°F6.8°C 71% 3.0 mph WSW4.8 kmh WSW 7.0 mph11.3 kmh 29.97 in1014.9 mb 0.00 in0.0 mm 0.00 in/hr0.0 mm/hr 0.00 in0.0 mm
02:46 AM 53.3°F11.8°C 44.2°F6.8°C 71% 3.0 mph W4.8 kmh W 7.0 mph11.3 kmh 29.97 in1014.9 mb 0.00 in0.0 mm 0.00 in/hr0.0 mm/hr 0.00 in0.0 mm
02:45 AM 53.3°F11.8°C 44.2°F6.8°C 71% 2.0 mph WSW3.2 kmh WSW 7.0 mph11.3 kmh 29.97 in1014.9 mb 0.00 in0.0 mm 0.00 in/hr0.0 mm/hr 0.00 in0.0 mm
02:44 AM 53.3°F11.8°C 44.2°F6.8°C 71% 2.0 mph NW3.2 kmh NW 7.0 mph11.3 kmh 29.97 in1014.9 mb 0.00 in0.0 mm 0.00 in/hr0.0 mm/hr 0.00 in0.0 mm
02:43 AM 53.3°F11.8°C 44.2°F6.8°C 71% 3.0 mph NW4.8 kmh NW 7.0 mph11.3 kmh 29.97 in1014.9 mb 0.00 in0.0 mm 0.00 in/hr0.0 mm/hr 0.00 in0.0 mm
02:42 AM 53.3°F11.8°C 44.2°F6.8°C 71% 3.0 mph WNW4.8 kmh WNW 7.0 mph11.3 kmh 29.97 in1014.9 mb 0.00 in0.0 mm 0.00 in/hr0.0 mm/hr 0.00 in0.0 mm
02:41 AM 53.3°F11.8°C 44.2°F6.8°C 71% 2.0 mph WSW3.2 kmh WSW 7.0 mph11.3 kmh 29.97 in1014.9 mb 0.00 in0.0 mm 0.00 in/hr0.0 mm/hr 0.00 in0.0 mm
02:40 AM 53.3°F11.8°C 44.2°F6.8°C 71% 2.0 mph WNW3.2 kmh WNW 7.0 mph11.3 kmh 29.97 in1014.9 mb 0.00 in0.0 mm 0.00 in/hr0.0 mm/hr 0.00 in0.0 mm
02:39 AM 53.2°F11.8°C 44.4°F6.9°C 72% 4.0 mph NW6.4 kmh NW 7.0 mph11.3 kmh 29.97 in1014.9 mb 0.00 in0.0 mm 0.00 in/hr0.0 mm/hr 0.00 in0.0 mm
02:38 AM 53.2°F11.8°C 44.4°F6.9°C 72% 3.0 mph W4.8 kmh W 7.0 mph11.3 kmh 29.97 in1014.9 mb 0.00 in0.0 mm 0.00 in/hr0.0 mm/hr 0.00 in0.0 mm
02:37 AM 53.1°F11.7°C 44.3°F6.8°C 72% 3.0 mph W4.8 kmh W 7.0 mph11.3 kmh 29.97 in1014.9 mb 0.00 in0.0 mm 0.00 in/hr0.0 mm/hr 0.00 in0.0 mm
02:36 AM 53.1°F11.7°C 44.3°F6.8°C 72% 4.0 mph W6.4 kmh W 7.0 mph11.3 kmh 29.97 in1014.9 mb 0.00 in0.0 mm 0.00 in/hr0.0 mm/hr 0.00 in0.0 mm
02:35 AM 53.0°F11.7°C 44.2°F6.8°C 72% 4.0 mph WNW6.4 kmh WNW 7.0 mph11.3 kmh 29.97 in1014.9 mb 0.00 in0.0 mm 0.00 in/hr0.0 mm/hr 0.00 in0.0 mm
02:34 AM 53.0°F11.7°C 44.2°F6.8°C 72% 5.0 mph NW8.0 kmh NW 7.0 mph11.3 kmh 29.97 in1014.9 mb 0.00 in0.0 mm 0.00 in/hr0.0 mm/hr 0.00 in0.0 mm
02:33 AM 52.9°F11.6°C 44.1°F6.7°C 72% 4.0 mph WNW6.4 kmh WNW 7.0 mph11.3 kmh 29.97 in1014.9 mb 0.00 in0.0 mm 0.00 in/hr0.0 mm/hr 0.00 in0.0 mm
02:32 AM 52.8°F11.6°C 44.0°F6.7°C 72% 6.0 mph W9.7 kmh W 7.0 mph11.3 kmh 29.97 in1014.9 mb 0.00 in0.0 mm 0.00 in/hr0.0 mm/hr 0.00 in0.0 mm
02:31 AM 52.8°F11.6°C 44.0°F6.7°C 72% 5.0 mph W8.0 kmh W 8.0 mph12.9 kmh 29.97 in1014.9 mb 0.00 in0.0 mm 0.00 in/hr0.0 mm/hr 0.00 in0.0 mm
02:30 AM 52.7°F11.5°C 44.3°F6.8°C 73% 6.0 mph WNW9.7 kmh WNW 8.0 mph12.9 kmh 29.97 in1014.9 mb 0.00 in0.0 mm 0.00 in/hr0.0 mm/hr 0.00 in0.0 mm
02:29 AM 52.6°F11.4°C 44.2°F6.8°C 73% 5.0 mph WNW8.0 kmh WNW 8.0 mph12.9 kmh 29.97 in1014.9 mb 0.00 in0.0 mm 0.00 in/hr0.0 mm/hr 0.00 in0.0 mm
02:28 AM 52.6°F11.4°C 43.8°F6.6°C 72% 6.0 mph WNW9.7 kmh WNW 8.0 mph12.9 kmh 29.97 in1014.9 mb 0.00 in0.0 mm 0.00 in/hr0.0 mm/hr 0.00 in0.0 mm
02:27 AM 52.6°F11.4°C 43.8°F6.6°C 72% 4.0 mph WNW6.4 kmh WNW 6.0 mph9.7 kmh 29.97 in1014.9 mb 0.00 in0.0 mm 0.00 in/hr0.0 mm/hr 0.00 in0.0 mm
02:26 AM 52.6°F11.4°C 43.8°F6.6°C 72% 5.0 mph WNW8.0 kmh WNW 6.0 mph9.7 kmh 29.97 in1014.9 mb 0.00 in0.0 mm 0.00 in/hr0.0 mm/hr 0.00 in0.0 mm
02:25 AM 52.6°F11.4°C 43.8°F6.6°C 72% 5.0 mph W8.0 kmh W 6.0 mph9.7 kmh 29.97 in1014.9 mb 0.00 in0.0 mm 0.00 in/hr0.0 mm/hr 0.00 in0.0 mm
02:24 AM 52.7°F11.5°C 43.9°F6.6°C 72% 2.0 mph WNW3.2 kmh WNW 6.0 mph9.7 kmh 29.97 in1014.9 mb 0.00 in0.0 mm 0.00 in/hr0.0 mm/hr 0.00 in0.0 mm
02:23 AM 52.7°F11.5°C 43.9°F6.6°C 72% 3.0 mph W4.8 kmh W 6.0 mph9.7 kmh 29.97 in1014.9 mb 0.00 in0.0 mm 0.00 in/hr0.0 mm/hr 0.00 in0.0 mm
02:22 AM 52.8°F11.6°C 44.0°F6.7°C 72% 4.0 mph WSW6.4 kmh WSW 6.0 mph9.7 kmh 29.97 in1014.9 mb 0.00 in0.0 mm 0.00 in/hr0.0 mm/hr 0.00 in0.0 mm
02:21 AM 52.9°F11.6°C 44.1°F6.7°C 72% 3.0 mph WNW4.8 kmh WNW 6.0 mph9.7 kmh 29.97 in1014.9 mb 0.00 in0.0 mm 0.00 in/hr0.0 mm/hr 0.00 in0.0 mm
02:20 AM 53.0°F11.7°C 43.9°F6.6°C 71% 3.0 mph W4.8 kmh W 6.0 mph9.7 kmh 29.97 in1014.9 mb 0.00 in0.0 mm 0.00 in/hr0.0 mm/hr 0.00 in0.0 mm
02:19 AM 53.1°F11.7°C 44.0°F6.7°C 71% 2.0 mph W3.2 kmh W 6.0 mph9.7 kmh 29.97 in1014.9 mb 0.00 in0.0 mm 0.00 in/hr0.0 mm/hr 0.00 in0.0 mm
02:18 AM 53.2°F11.8°C 44.1°F6.7°C 71% 2.0 mph WNW3.2 kmh WNW 6.0 mph9.7 kmh 29.97 in1014.9 mb 0.00 in0.0 mm 0.00 in/hr0.0 mm/hr 0.00 in0.0 mm
02:17 AM 53.2°F11.8°C 44.1°F6.7°C 71% 2.0 mph W3.2 kmh W 6.0 mph9.7 kmh 29.97 in1014.9 mb 0.00 in0.0 mm 0.00 in/hr0.0 mm/hr 0.00 in0.0 mm
02:16 AM 53.3°F11.8°C 44.2°F6.8°C 71% 2.0 mph W3.2 kmh W 6.0 mph9.7 kmh 29.97 in1014.9 mb 0.00 in0.0 mm 0.00 in/hr0.0 mm/hr 0.00 in0.0 mm
02:15 AM 53.4°F11.9°C 43.9°F6.6°C 70% 3.0 mph W4.8 kmh W 6.0 mph9.7 kmh 29.97 in1014.9 mb 0.00 in0.0 mm 0.00 in/hr0.0 mm/hr 0.00 in0.0 mm
02:14 AM 53.5°F11.9°C 44.0°F6.7°C 70% 2.0 mph SW3.2 kmh SW 6.0 mph9.7 kmh 29.97 in1014.9 mb 0.00 in0.0 mm 0.00 in/hr0.0 mm/hr 0.00 in0.0 mm
02:13 AM 53.6°F12.0°C 44.1°F6.7°C 70% 1.0 mph NW1.6 kmh NW 6.0 mph9.7 kmh 29.97 in1014.9 mb 0.00 in0.0 mm 0.00 in/hr0.0 mm/hr 0.00 in0.0 mm
02:12 AM 53.7°F12.1°C 44.2°F6.8°C 70% 2.0 mph WNW3.2 kmh WNW 6.0 mph9.7 kmh 29.97 in1014.9 mb 0.00 in0.0 mm 0.00 in/hr0.0 mm/hr 0.00 in0.0 mm
02:11 AM 53.8°F12.1°C 44.3°F6.8°C 70% 1.0 mph WNW1.6 kmh WNW 6.0 mph9.7 kmh 29.97 in1014.9 mb 0.00 in0.0 mm 0.00 in/hr0.0 mm/hr 0.00 in0.0 mm
02:10 AM 53.9°F12.2°C 44.4°F6.9°C 70% 1.0 mph W1.6 kmh W 6.0 mph9.7 kmh 29.97 in1014.9 mb 0.00 in0.0 mm 0.00 in/hr0.0 mm/hr 0.00 in0.0 mm
02:09 AM 53.9°F12.2°C 44.0°F6.7°C 69% 3.0 mph WSW4.8 kmh WSW 6.0 mph9.7 kmh 29.97 in1014.9 mb 0.00 in0.0 mm 0.00 in/hr0.0 mm/hr 0.00 in0.0 mm
02:08 AM 54.0°F12.2°C 44.1°F6.7°C 69% 3.0 mph WNW4.8 kmh WNW 6.0 mph9.7 kmh 29.97 in1014.9 mb 0.00 in0.0 mm 0.00 in/hr0.0 mm/hr 0.00 in0.0 mm
02:07 AM 54.1°F12.3°C 44.2°F6.8°C 69% 2.0 mph W3.2 kmh W 6.0 mph9.7 kmh 29.96 in1014.6 mb 0.00 in0.0 mm 0.00 in/hr0.0 mm/hr 0.00 in0.0 mm
02:06 AM 54.2°F12.3°C 44.3°F6.8°C 69% 1.0 mph W1.6 kmh W 3.0 mph4.8 kmh 29.96 in1014.6 mb 0.00 in0.0 mm 0.00 in/hr0.0 mm/hr 0.00 in0.0 mm
02:05 AM 54.3°F12.4°C 44.4°F6.9°C 69% 3.0 mph WNW4.8 kmh WNW 3.0 mph4.8 kmh 29.96 in1014.6 mb 0.00 in0.0 mm 0.00 in/hr0.0 mm/hr 0.00 in0.0 mm
02:04 AM 54.3°F12.4°C 44.0°F6.7°C 68% Calm Calm 3.0 mph4.8 kmh 29.96 in1014.6 mb 0.00 in0.0 mm 0.00 in/hr0.0 mm/hr 0.00 in0.0 mm
02:03 AM 54.4°F12.4°C 44.1°F6.7°C 68% 2.0 mph W3.2 kmh W 3.0 mph4.8 kmh 29.96 in1014.6 mb 0.00 in0.0 mm 0.00 in/hr0.0 mm/hr 0.00 in0.0 mm
02:02 AM 54.5°F12.5°C 44.2°F6.8°C 68% 1.0 mph W1.6 kmh W 3.0 mph4.8 kmh 29.96 in1014.6 mb 0.00 in0.0 mm 0.00 in/hr0.0 mm/hr 0.00 in0.0 mm
02:01 AM 54.6°F12.6°C 44.3°F6.8°C 68% 1.0 mph NW1.6 kmh NW 9.0 mph14.5 kmh 29.96 in1014.6 mb 0.00 in0.0 mm 0.00 in/hr0.0 mm/hr 0.00 in0.0 mm
02:00 AM 54.6°F12.6°C 44.3°F6.8°C 68% Calm Calm 9.0 mph14.5 kmh 29.96 in1014.6 mb 0.00 in0.0 mm 0.00 in/hr0.0 mm/hr 0.00 in0.0 mm
01:59 AM 54.7°F12.6°C 44.4°F6.9°C 68% 1.0 mph NW1.6 kmh NW 9.0 mph14.5 kmh 29.96 in1014.6 mb 0.00 in0.0 mm 0.00 in/hr0.0 mm/hr 0.00 in0.0 mm
01:58 AM 54.7°F12.6°C 44.4°F6.9°C 68% Calm Calm 9.0 mph14.5 kmh 29.96 in1014.6 mb 0.00 in0.0 mm 0.00 in/hr0.0 mm/hr 0.00 in0.0 mm
01:57 AM 54.8°F12.7°C 44.5°F6.9°C 68% 2.0 mph W3.2 kmh W 9.0 mph14.5 kmh 29.96 in1014.6 mb 0.00 in0.0 mm 0.00 in/hr0.0 mm/hr 0.00 in0.0 mm
01:56 AM 54.8°F12.7°C 44.5°F6.9°C 68% 1.0 mph WSW1.6 kmh WSW 9.0 mph14.5 kmh 29.96 in1014.6 mb 0.00 in0.0 mm 0.00 in/hr0.0 mm/hr 0.00 in0.0 mm
01:55 AM 54.9°F12.7°C 44.6°F7.0°C 68% Calm Calm 9.0 mph14.5 kmh 29.96 in1014.6 mb 0.00 in0.0 mm 0.00 in/hr0.0 mm/hr 0.00 in0.0 mm
01:54 AM 54.9°F12.7°C 44.6°F7.0°C 68% Calm Calm 9.0 mph14.5 kmh 29.96 in1014.6 mb 0.00 in0.0 mm 0.00 in/hr0.0 mm/hr 0.00 in0.0 mm
01:53 AM 54.9°F12.7°C 44.2°F6.8°C 67% 1.0 mph NW1.6 kmh NW 9.0 mph14.5 kmh 29.96 in1014.6 mb 0.00 in0.0 mm 0.00 in/hr0.0 mm/hr 0.00 in0.0 mm
01:52 AM 55.0°F12.8°C 44.7°F7.1°C 68% 3.0 mph NW4.8 kmh NW 9.0 mph14.5 kmh 29.96 in1014.6 mb 0.00 in0.0 mm 0.00 in/hr0.0 mm/hr 0.00 in0.0 mm
01:51 AM 55.0°F12.8°C 44.7°F7.1°C 68% 1.0 mph WNW1.6 kmh WNW 9.0 mph14.5 kmh 29.96 in1014.6 mb 0.00 in0.0 mm 0.00 in/hr0.0 mm/hr 0.00 in0.0 mm
01:50 AM 55.0°F12.8°C 44.7°F7.1°C 68% 2.0 mph WNW3.2 kmh WNW 9.0 mph14.5 kmh 29.96 in1014.6 mb 0.00 in0.0 mm 0.00 in/hr0.0 mm/hr 0.00 in0.0 mm
01:49 AM 55.1°F12.8°C 44.7°F7.1°C 68% 1.0 mph WSW1.6 kmh WSW 9.0 mph14.5 kmh 29.96 in1014.6 mb 0.00 in0.0 mm 0.00 in/hr0.0 mm/hr 0.00 in0.0 mm
01:48 AM 55.1°F12.8°C 44.7°F7.1°C 68% 2.0 mph WSW3.2 kmh WSW 9.0 mph14.5 kmh 29.96 in1014.6 mb 0.00 in0.0 mm 0.00 in/hr0.0 mm/hr 0.00 in0.0 mm
01:47 AM 55.1°F12.8°C 44.4°F6.9°C 67% 2.0 mph WSW3.2 kmh WSW 9.0 mph14.5 kmh 29.96 in1014.6 mb 0.00 in0.0 mm 0.00 in/hr0.0 mm/hr 0.00 in0.0 mm
01:46 AM 55.1°F12.8°C 44.4°F6.9°C 67% 1.0 mph SW1.6 kmh SW 9.0 mph14.5 kmh 29.96 in1014.6 mb 0.00 in0.0 mm 0.00 in/hr0.0 mm/hr 0.00 in0.0 mm
01:45 AM 55.1°F12.8°C 44.4°F6.9°C 67% 1.0 mph WSW1.6 kmh WSW 9.0 mph14.5 kmh 29.96 in1014.6 mb 0.00 in0.0 mm 0.00 in/hr0.0 mm/hr 0.00 in0.0 mm
01:44 AM 55.1°F12.8°C 44.4°F6.9°C 67% 1.0 mph NW1.6 kmh NW 9.0 mph14.5 kmh 29.96 in1014.6 mb 0.00 in0.0 mm 0.00 in/hr0.0 mm/hr 0.00 in0.0 mm
01:43 AM 55.1°F12.8°C 44.4°F6.9°C 67% 4.0 mph WNW6.4 kmh WNW 9.0 mph14.5 kmh 29.96 in1014.6 mb 0.00 in0.0 mm 0.00 in/hr0.0 mm/hr 0.00 in0.0 mm
01:42 AM 55.0°F12.8°C 44.7°F7.1°C 68% 3.0 mph W4.8 kmh W 9.0 mph14.5 kmh 29.96 in1014.6 mb 0.00 in0.0 mm 0.00 in/hr0.0 mm/hr 0.00 in0.0 mm
01:41 AM 54.9°F12.7°C 44.6°F7.0°C 68% 5.0 mph WNW8.0 kmh WNW 9.0 mph14.5 kmh 29.96 in1014.6 mb 0.00 in0.0 mm 0.00 in/hr0.0 mm/hr 0.00 in0.0 mm
01:40 AM 54.9°F12.7°C 44.6°F7.0°C 68% 5.0 mph WNW8.0 kmh WNW 9.0 mph14.5 kmh 29.96 in1014.6 mb 0.00 in0.0 mm 0.00 in/hr0.0 mm/hr 0.00 in0.0 mm
01:39 AM 54.8°F12.7°C 44.5°F6.9°C 68% 7.0 mph WNW11.3 kmh WNW 9.0 mph14.5 kmh 29.96 in1014.6 mb 0.00 in0.0 mm 0.00 in/hr0.0 mm/hr 0.00 in0.0 mm
01:38 AM 54.7°F12.6°C 44.4°F6.9°C 68% 5.0 mph NW8.0 kmh NW 9.0 mph14.5 kmh 29.96 in1014.6 mb 0.00 in0.0 mm 0.00 in/hr0.0 mm/hr 0.00 in0.0 mm
01:37 AM 54.6°F12.6°C 44.3°F6.8°C 68% 7.0 mph WNW11.3 kmh WNW 8.0 mph12.9 kmh 29.96 in1014.6 mb 0.00 in0.0 mm 0.00 in/hr0.0 mm/hr 0.00 in0.0 mm
01:36 AM 54.5°F12.5°C 44.2°F6.8°C 68% 7.0 mph WNW11.3 kmh WNW 8.0 mph12.9 kmh 29.96 in1014.6 mb 0.00 in0.0 mm 0.00 in/hr0.0 mm/hr 0.00 in0.0 mm
01:35 AM 54.4°F12.4°C 44.1°F6.7°C 68% 6.0 mph WNW9.7 kmh WNW 8.0 mph12.9 kmh 29.95 in1014.2 mb 0.00 in0.0 mm 0.00 in/hr0.0 mm/hr 0.00 in0.0 mm
01:34 AM 54.3°F12.4°C 44.0°F6.7°C 68% 5.0 mph WNW8.0 kmh WNW 8.0 mph12.9 kmh 29.95 in1014.2 mb 0.00 in0.0 mm 0.00 in/hr0.0 mm/hr 0.00 in0.0 mm
01:33 AM 54.2°F12.3°C 43.9°F6.6°C 68% 4.0 mph W6.4 kmh W 7.0 mph11.3 kmh 29.95 in1014.2 mb 0.00 in0.0 mm 0.00 in/hr0.0 mm/hr 0.00 in0.0 mm
01:32 AM 54.1°F12.3°C 43.8°F6.6°C 68% 6.0 mph WNW9.7 kmh WNW 7.0 mph11.3 kmh 29.95 in1014.2 mb 0.00 in0.0 mm 0.00 in/hr0.0 mm/hr 0.00 in0.0 mm
01:31 AM 54.1°F12.3°C 44.2°F6.8°C 69% 6.0 mph NW9.7 kmh NW 10.0 mph16.1 kmh 29.95 in1014.2 mb 0.00 in0.0 mm 0.00 in/hr0.0 mm/hr 0.00 in0.0 mm
01:30 AM 54.1°F12.3°C 44.2°F6.8°C 69% 3.0 mph W4.8 kmh W 10.0 mph16.1 kmh 29.95 in1014.2 mb 0.00 in0.0 mm 0.00 in/hr0.0 mm/hr 0.00 in0.0 mm
01:29 AM 54.1°F12.3°C 43.8°F6.6°C 68% 5.0 mph WNW8.0 kmh WNW 10.0 mph16.1 kmh 29.95 in1014.2 mb 0.00 in0.0 mm 0.00 in/hr0.0 mm/hr 0.00 in0.0 mm
01:28 AM 54.2°F12.3°C 43.9°F6.6°C 68% 5.0 mph WNW8.0 kmh WNW 10.0 mph16.1 kmh 29.95 in1014.2 mb 0.00 in0.0 mm 0.00 in/hr0.0 mm/hr 0.00 in0.0 mm
01:27 AM 54.2°F12.3°C 43.9°F6.6°C 68% 5.0 mph WNW8.0 kmh WNW 10.0 mph16.1 kmh 29.95 in1014.2 mb 0.00 in0.0 mm 0.00 in/hr0.0 mm/hr 0.00 in0.0 mm
01:26 AM 54.3°F12.4°C 44.0°F6.7°C 68% 6.0 mph WNW9.7 kmh WNW 10.0 mph16.1 kmh 29.95 in1014.2 mb 0.00 in0.0 mm 0.00 in/hr0.0 mm/hr 0.00 in0.0 mm
01:25 AM 54.4°F12.4°C 44.1°F6.7°C 68% 7.0 mph WNW11.3 kmh WNW 10.0 mph16.1 kmh 29.95 in1014.2 mb 0.00 in0.0 mm 0.00 in/hr0.0 mm/hr 0.00 in0.0 mm
01:24 AM 54.5°F12.5°C 44.2°F6.8°C 68% 6.0 mph NW9.7 kmh NW 10.0 mph16.1 kmh 29.95 in1014.2 mb 0.00 in0.0 mm 0.00 in/hr0.0 mm/hr 0.00 in0.0 mm
01:23 AM 54.6°F12.6°C 44.3°F6.8°C 68% 6.0 mph WNW9.7 kmh WNW 10.0 mph16.1 kmh 29.95 in1014.2 mb 0.00 in0.0 mm 0.00 in/hr0.0 mm/hr 0.00 in0.0 mm
01:22 AM 54.7°F12.6°C 44.4°F6.9°C 68% 7.0 mph NW11.3 kmh NW 10.0 mph16.1 kmh 29.95 in1014.2 mb 0.00 in0.0 mm 0.00 in/hr0.0 mm/hr 0.00 in0.0 mm
01:21 AM 54.8°F12.7°C 44.5°F6.9°C 68% 6.0 mph NW9.7 kmh NW 10.0 mph16.1 kmh 29.95 in1014.2 mb 0.00 in0.0 mm 0.00 in/hr0.0 mm/hr 0.00 in0.0 mm
01:20 AM 54.9°F12.7°C 44.6°F7.0°C 68% 6.0 mph WNW9.7 kmh WNW 10.0 mph16.1 kmh 29.95 in1014.2 mb 0.00 in0.0 mm 0.00 in/hr0.0 mm/hr 0.00 in0.0 mm
01:19 AM 54.9°F12.7°C 44.6°F7.0°C 68% 8.0 mph WNW12.9 kmh WNW 10.0 mph16.1 kmh 29.95 in1014.2 mb 0.00 in0.0 mm 0.00 in/hr0.0 mm/hr 0.00 in0.0 mm
01:18 AM 55.0°F12.8°C 44.3°F6.8°C 67% 8.0 mph NW12.9 kmh NW 10.0 mph16.1 kmh 29.95 in1014.2 mb 0.00 in0.0 mm 0.00 in/hr0.0 mm/hr 0.00 in0.0 mm
01:17 AM 55.0°F12.8°C 44.3°F6.8°C 67% 8.0 mph NW12.9 kmh NW 10.0 mph16.1 kmh 29.95 in1014.2 mb 0.00 in0.0 mm 0.00 in/hr0.0 mm/hr 0.00 in0.0 mm
01:16 AM 55.0°F12.8°C 44.7°F7.1°C 68% 8.0 mph WNW12.9 kmh WNW 10.0 mph16.1 kmh 29.95 in1014.2 mb 0.00 in0.0 mm 0.00 in/hr0.0 mm/hr 0.00 in0.0 mm
01:15 AM 55.1°F12.8°C 44.4°F6.9°C 67% 7.0 mph WNW11.3 kmh WNW 10.0 mph16.1 kmh 29.95 in1014.2 mb 0.00 in0.0 mm 0.00 in/hr0.0 mm/hr 0.00 in0.0 mm
01:14 AM 55.1°F12.8°C 44.4°F6.9°C 67% 8.0 mph WNW12.9 kmh WNW 10.0 mph16.1 kmh 29.95 in1014.2 mb 0.00 in0.0 mm 0.00 in/hr0.0 mm/hr 0.00 in0.0 mm
01:13 AM 55.1°F12.8°C 44.4°F6.9°C 67% 8.0 mph WNW12.9 kmh WNW 10.0 mph16.1 kmh 29.95 in1014.2 mb 0.00 in0.0 mm 0.00 in/hr0.0 mm/hr 0.00 in0.0 mm
01:12 AM 55.1°F12.8°C 44.4°F6.9°C 67% 8.0 mph WNW12.9 kmh WNW 10.0 mph16.1 kmh 29.95 in1014.2 mb 0.00 in0.0 mm 0.00 in/hr0.0 mm/hr 0.00 in0.0 mm
01:11 AM 55.2°F12.9°C 44.5°F6.9°C 67% 8.0 mph NW12.9 kmh NW 10.0 mph16.1 kmh 29.95 in1014.2 mb 0.00 in0.0 mm 0.00 in/hr0.0 mm/hr 0.00 in0.0 mm
01:10 AM 55.2°F12.9°C 44.5°F6.9°C 67% 8.0 mph WNW12.9 kmh WNW 10.0 mph16.1 kmh 29.95 in1014.2 mb 0.00 in0.0 mm 0.00 in/hr0.0 mm/hr 0.00 in0.0 mm
01:09 AM 55.3°F12.9°C 44.5°F6.9°C 67% 8.0 mph WNW12.9 kmh WNW 10.0 mph16.1 kmh 29.95 in1014.2 mb 0.00 in0.0 mm 0.00 in/hr0.0 mm/hr 0.00 in0.0 mm
01:08 AM 55.5°F13.1°C 44.7°F7.1°C 67% 8.0 mph NW12.9 kmh NW 10.0 mph16.1 kmh 29.95 in1014.2 mb 0.00 in0.0 mm 0.00 in/hr0.0 mm/hr 0.00 in0.0 mm
01:07 AM 55.6°F13.1°C 44.8°F7.1°C 67% 8.0 mph NW12.9 kmh NW 10.0 mph16.1 kmh 29.95 in1014.2 mb 0.00 in0.0 mm 0.00 in/hr0.0 mm/hr 0.00 in0.0 mm
01:06 AM 55.8°F13.2°C 44.6°F7.0°C 66% 7.0 mph NW11.3 kmh NW 10.0 mph16.1 kmh 29.95 in1014.2 mb 0.00 in0.0 mm 0.00 in/hr0.0 mm/hr 0.00 in0.0 mm
01:05 AM 56.0°F13.3°C 44.8°F7.1°C 66% 9.0 mph WNW14.5 kmh WNW 10.0 mph16.1 kmh 29.95 in1014.2 mb 0.00 in0.0 mm 0.00 in/hr0.0 mm/hr 0.00 in0.0 mm
01:04 AM 56.1°F13.4°C 44.9°F7.2°C 66% 9.0 mph WNW14.5 kmh WNW 10.0 mph16.1 kmh 29.95 in1014.2 mb 0.00 in0.0 mm 0.00 in/hr0.0 mm/hr 0.00 in0.0 mm
01:03 AM 56.2°F13.4°C 45.0°F7.2°C 66% 9.0 mph WNW14.5 kmh WNW 10.0 mph16.1 kmh 29.95 in1014.2 mb 0.00 in0.0 mm 0.00 in/hr0.0 mm/hr 0.00 in0.0 mm
01:02 AM 56.3°F13.5°C 44.7°F7.1°C 65% 8.0 mph WNW12.9 kmh WNW 10.0 mph16.1 kmh 29.95 in1014.2 mb 0.00 in0.0 mm 0.00 in/hr0.0 mm/hr 0.00 in0.0 mm
01:01 AM 56.4°F13.6°C 45.2°F7.3°C 66% 9.0 mph WNW14.5 kmh WNW 12.0 mph19.3 kmh 29.95 in1014.2 mb 0.00 in0.0 mm 0.00 in/hr0.0 mm/hr 0.00 in0.0 mm
01:00 AM 56.5°F13.6°C 45.3°F7.4°C 66% 9.0 mph WNW14.5 kmh WNW 12.0 mph19.3 kmh 29.95 in1014.2 mb 0.00 in0.0 mm 0.00 in/hr0.0 mm/hr 0.00 in0.0 mm
12:59 AM 56.6°F13.7°C 45.4°F7.4°C 66% 7.0 mph W11.3 kmh W 12.0 mph19.3 kmh 29.95 in1014.2 mb 0.00 in0.0 mm 0.00 in/hr0.0 mm/hr 0.00 in0.0 mm
12:58 AM 56.6°F13.7°C 45.4°F7.4°C 66% 9.0 mph WNW14.5 kmh WNW 12.0 mph19.3 kmh 29.95 in1014.2 mb 0.00 in0.0 mm 0.00 in/hr0.0 mm/hr 0.00 in0.0 mm
12:57 AM 56.6°F13.7°C 45.4°F7.4°C 66% 9.0 mph WNW14.5 kmh WNW 12.0 mph19.3 kmh 29.95 in1014.2 mb 0.00 in0.0 mm 0.00 in/hr0.0 mm/hr 0.00 in0.0 mm
12:56 AM 56.7°F13.7°C 45.5°F7.5°C 66% 9.0 mph WNW14.5 kmh WNW 12.0 mph19.3 kmh 29.95 in1014.2 mb 0.00 in0.0 mm 0.00 in/hr0.0 mm/hr 0.00 in0.0 mm
12:55 AM 56.7°F13.7°C 45.5°F7.5°C 66% 9.0 mph WNW14.5 kmh WNW 12.0 mph19.3 kmh 29.95 in1014.2 mb 0.00 in0.0 mm 0.00 in/hr0.0 mm/hr 0.00 in0.0 mm
12:54 AM 56.7°F13.7°C 45.5°F7.5°C 66% 9.0 mph NW14.5 kmh NW 12.0 mph19.3 kmh 29.95 in1014.2 mb 0.00 in0.0 mm 0.00 in/hr0.0 mm/hr 0.00 in0.0 mm
12:53 AM 56.7°F13.7°C 45.5°F7.5°C 66% 8.0 mph WNW12.9 kmh WNW 12.0 mph19.3 kmh 29.95 in1014.2 mb 0.00 in0.0 mm 0.00 in/hr0.0 mm/hr 0.00 in0.0 mm
12:52 AM 56.6°F13.7°C 45.4°F7.4°C 66% 10.0 mph NW16.1 kmh NW 12.0 mph19.3 kmh 29.95 in1014.2 mb 0.00 in0.0 mm 0.00 in/hr0.0 mm/hr 0.00 in0.0 mm
12:51 AM 56.7°F13.7°C 45.5°F7.5°C 66% 10.0 mph NW16.1 kmh NW 12.0 mph19.3 kmh 29.95 in1014.2 mb 0.00 in0.0 mm 0.00 in/hr0.0 mm/hr 0.00 in0.0 mm
12:50 AM 56.6°F13.7°C 45.4°F7.4°C 66% 9.0 mph NW14.5 kmh NW 12.0 mph19.3 kmh 29.95 in1014.2 mb 0.00 in0.0 mm 0.00 in/hr0.0 mm/hr 0.00 in0.0 mm
12:49 AM 56.6°F13.7°C 45.4°F7.4°C 66% 8.0 mph NW12.9 kmh NW 12.0 mph19.3 kmh 29.95 in1014.2 mb 0.00 in0.0 mm 0.00 in/hr0.0 mm/hr 0.00 in0.0 mm
12:48 AM 56.7°F13.7°C 45.5°F7.5°C 66% 9.0 mph WNW14.5 kmh WNW 12.0 mph19.3 kmh 29.94 in1013.9 mb 0.00 in0.0 mm 0.00 in/hr0.0 mm/hr 0.00 in0.0 mm
12:47 AM 56.7°F13.7°C 45.5°F7.5°C 66% 9.0 mph NW14.5 kmh NW 12.0 mph19.3 kmh 29.94 in1013.9 mb 0.00 in0.0 mm 0.00 in/hr0.0 mm/hr 0.00 in0.0 mm
12:46 AM 56.7°F13.7°C 45.5°F7.5°C 66% 10.0 mph WNW16.1 kmh WNW 12.0 mph19.3 kmh 29.94 in1013.9 mb 0.00 in0.0 mm 0.00 in/hr0.0 mm/hr 0.00 in0.0 mm
12:45 AM 56.7°F13.7°C 45.5°F7.5°C 66% 12.0 mph NW19.3 kmh NW 12.0 mph19.3 kmh 29.94 in1013.9 mb 0.00 in0.0 mm 0.00 in/hr0.0 mm/hr 0.00 in0.0 mm
12:44 AM 56.7°F13.7°C 45.5°F7.5°C 66% 8.0 mph NW12.9 kmh NW 11.0 mph17.7 kmh 29.94 in1013.9 mb 0.00 in0.0 mm 0.00 in/hr0.0 mm/hr 0.00 in0.0 mm
12:43 AM 56.6°F13.7°C 45.4°F7.4°C 66% 9.0 mph NW14.5 kmh NW 11.0 mph17.7 kmh 29.94 in1013.9 mb 0.00 in0.0 mm 0.00 in/hr0.0 mm/hr 0.00 in0.0 mm
12:42 AM 56.6°F13.7°C 45.4°F7.4°C 66% 8.0 mph NW12.9 kmh NW 11.0 mph17.7 kmh 29.94 in1013.9 mb 0.00 in0.0 mm 0.00 in/hr0.0 mm/hr 0.00 in0.0 mm
12:41 AM 56.5°F13.6°C 45.3°F7.4°C 66% 10.0 mph NW16.1 kmh NW 11.0 mph17.7 kmh 29.94 in1013.9 mb 0.00 in0.0 mm 0.00 in/hr0.0 mm/hr 0.00 in0.0 mm
12:40 AM 56.4°F13.6°C 45.2°F7.3°C 66% 9.0 mph NW14.5 kmh NW 11.0 mph17.7 kmh 29.94 in1013.9 mb 0.00 in0.0 mm 0.00 in/hr0.0 mm/hr 0.00 in0.0 mm
12:39 AM 56.3°F13.5°C 45.1°F7.3°C 66% 9.0 mph NW14.5 kmh NW 11.0 mph17.7 kmh 29.94 in1013.9 mb 0.00 in0.0 mm 0.00 in/hr0.0 mm/hr 0.00 in0.0 mm
12:38 AM 56.2°F13.4°C 45.0°F7.2°C 66% 9.0 mph NW14.5 kmh NW 11.0 mph17.7 kmh 29.94 in1013.9 mb 0.00 in0.0 mm 0.00 in/hr0.0 mm/hr 0.00 in0.0 mm
12:37 AM 56.2°F13.4°C 45.0°F7.2°C 66% 10.0 mph NW16.1 kmh NW 11.0 mph17.7 kmh 29.94 in1013.9 mb 0.00 in0.0 mm 0.00 in/hr0.0 mm/hr 0.00 in0.0 mm
12:36 AM 56.0°F13.3°C 45.2°F7.3°C 67% 9.0 mph NW14.5 kmh NW 11.0 mph17.7 kmh 29.94 in1013.9 mb 0.00 in0.0 mm 0.00 in/hr0.0 mm/hr 0.00 in0.0 mm
12:35 AM 56.0°F13.3°C 45.2°F7.3°C 67% 9.0 mph NW14.5 kmh NW 10.0 mph16.1 kmh 29.94 in1013.9 mb 0.00 in0.0 mm 0.00 in/hr0.0 mm/hr 0.00 in0.0 mm
12:34 AM 55.9°F13.3°C 45.1°F7.3°C 67% 9.0 mph NW14.5 kmh NW 10.0 mph16.1 kmh 29.94 in1013.9 mb 0.00 in0.0 mm 0.00 in/hr0.0 mm/hr 0.00 in0.0 mm
12:33 AM 55.8°F13.2°C 45.0°F7.2°C 67% 9.0 mph NW14.5 kmh NW 10.0 mph16.1 kmh 29.94 in1013.9 mb 0.00 in0.0 mm 0.00 in/hr0.0 mm/hr 0.00 in0.0 mm
12:32 AM 55.8°F13.2°C 45.0°F7.2°C 67% 8.0 mph NW12.9 kmh NW 9.0 mph14.5 kmh 29.94 in1013.9 mb 0.00 in0.0 mm 0.00 in/hr0.0 mm/hr 0.00 in0.0 mm
12:31 AM 55.7°F13.2°C 44.9°F7.2°C 67% 9.0 mph NW14.5 kmh NW 11.0 mph17.7 kmh 29.94 in1013.9 mb 0.00 in0.0 mm 0.00 in/hr0.0 mm/hr 0.00 in0.0 mm
12:30 AM 55.7°F13.2°C 44.9°F7.2°C 67% 9.0 mph NW14.5 kmh NW 11.0 mph17.7 kmh 29.94 in1013.9 mb 0.00 in0.0 mm 0.00 in/hr0.0 mm/hr 0.00 in0.0 mm
12:29 AM 55.7°F13.2°C 44.9°F7.2°C 67% 9.0 mph NW14.5 kmh NW 11.0 mph17.7 kmh 29.94 in1013.9 mb 0.00 in0.0 mm 0.00 in/hr0.0 mm/hr 0.00 in0.0 mm
12:28 AM 55.7°F13.2°C 44.9°F7.2°C 67% 10.0 mph NW16.1 kmh NW 11.0 mph17.7 kmh 29.93 in1013.5 mb 0.00 in0.0 mm 0.00 in/hr0.0 mm/hr 0.00 in0.0 mm
12:27 AM 55.7°F13.2°C 44.9°F7.2°C 67% 8.0 mph NW12.9 kmh NW 11.0 mph17.7 kmh 29.93 in1013.5 mb 0.00 in0.0 mm 0.00 in/hr0.0 mm/hr 0.00 in0.0 mm
12:26 AM 55.7°F13.2°C 44.9°F7.2°C 67% 10.0 mph WNW16.1 kmh WNW 11.0 mph17.7 kmh 29.93 in1013.5 mb 0.00 in0.0 mm 0.00 in/hr0.0 mm/hr 0.00 in0.0 mm
12:25 AM 55.7°F13.2°C 44.9°F7.2°C 67% 9.0 mph WNW14.5 kmh WNW 11.0 mph17.7 kmh 29.93 in1013.5 mb 0.00 in0.0 mm 0.00 in/hr0.0 mm/hr 0.00 in0.0 mm
12:24 AM 55.8°F13.2°C 45.0°F7.2°C 67% 11.0 mph WNW17.7 kmh WNW 11.0 mph17.7 kmh 29.93 in1013.5 mb 0.00 in0.0 mm 0.00 in/hr0.0 mm/hr 0.00 in0.0 mm
12:23 AM 55.8°F13.2°C 45.0°F7.2°C 67% 9.0 mph WNW14.5 kmh WNW 11.0 mph17.7 kmh 29.93 in1013.5 mb 0.00 in0.0 mm 0.00 in/hr0.0 mm/hr 0.00 in0.0 mm
12:22 AM 55.9°F13.3°C 45.1°F7.3°C 67% 8.0 mph WNW12.9 kmh WNW 11.0 mph17.7 kmh 29.93 in1013.5 mb 0.00 in0.0 mm 0.00 in/hr0.0 mm/hr 0.00 in0.0 mm
12:21 AM 55.9°F13.3°C 44.7°F7.1°C 66% 8.0 mph WNW12.9 kmh WNW 11.0 mph17.7 kmh 29.93 in1013.5 mb 0.00 in0.0 mm 0.00 in/hr0.0 mm/hr 0.00 in0.0 mm
12:20 AM 55.9°F13.3°C 44.7°F7.1°C 66% 9.0 mph NW14.5 kmh NW 11.0 mph17.7 kmh 29.93 in1013.5 mb 0.00 in0.0 mm 0.00 in/hr0.0 mm/hr 0.00 in0.0 mm
12:19 AM 55.9°F13.3°C 44.7°F7.1°C 66% 8.0 mph NW12.9 kmh NW 11.0 mph17.7 kmh 29.93 in1013.5 mb 0.00 in0.0 mm 0.00 in/hr0.0 mm/hr 0.00 in0.0 mm
12:18 AM 55.8°F13.2°C 45.0°F7.2°C 67% 10.0 mph NW16.1 kmh NW 10.0 mph16.1 kmh 29.93 in1013.5 mb 0.00 in0.0 mm 0.00 in/hr0.0 mm/hr 0.00 in0.0 mm
12:17 AM 55.8°F13.2°C 45.0°F7.2°C 67% 8.0 mph WNW12.9 kmh WNW 10.0 mph16.1 kmh 29.93 in1013.5 mb 0.00 in0.0 mm 0.00 in/hr0.0 mm/hr 0.00 in0.0 mm
12:16 AM 55.7°F13.2°C 44.9°F7.2°C 67% 9.0 mph WNW14.5 kmh WNW 10.0 mph16.1 kmh 29.93 in1013.5 mb 0.00 in0.0 mm 0.00 in/hr0.0 mm/hr 0.00 in0.0 mm
12:15 AM 55.6°F13.1°C 44.8°F7.1°C 67% 8.0 mph WNW12.9 kmh WNW 10.0 mph16.1 kmh 29.93 in1013.5 mb 0.00 in0.0 mm 0.00 in/hr0.0 mm/hr 0.00 in0.0 mm
12:14 AM 55.4°F13.0°C 45.0°F7.2°C 68% 10.0 mph NW16.1 kmh NW 10.0 mph16.1 kmh 29.93 in1013.5 mb 0.00 in0.0 mm 0.00 in/hr0.0 mm/hr 0.00 in0.0 mm
12:13 AM 55.3°F12.9°C 44.9°F7.2°C 68% 7.0 mph WNW11.3 kmh WNW 10.0 mph16.1 kmh 29.93 in1013.5 mb 0.00 in0.0 mm 0.00 in/hr0.0 mm/hr 0.00 in0.0 mm
12:12 AM 55.1°F12.8°C 44.7°F7.1°C 68% 8.0 mph WNW12.9 kmh WNW 9.0 mph14.5 kmh 29.93 in1013.5 mb 0.00 in0.0 mm 0.00 in/hr0.0 mm/hr 0.00 in0.0 mm
12:11 AM 55.0°F12.8°C 44.7°F7.1°C 68% 8.0 mph WNW12.9 kmh WNW 9.0 mph14.5 kmh 29.93 in1013.5 mb 0.00 in0.0 mm 0.00 in/hr0.0 mm/hr 0.00 in0.0 mm
12:10 AM 54.8°F12.7°C 44.5°F6.9°C 68% 7.0 mph WNW11.3 kmh WNW 9.0 mph14.5 kmh 29.93 in1013.5 mb 0.00 in0.0 mm 0.00 in/hr0.0 mm/hr 0.00 in0.0 mm
12:09 AM 54.6°F12.6°C 44.3°F6.8°C 68% 7.0 mph NW11.3 kmh NW 9.0 mph14.5 kmh 29.93 in1013.5 mb 0.00 in0.0 mm 0.00 in/hr0.0 mm/hr 0.00 in0.0 mm
12:08 AM 54.5°F12.5°C 44.2°F6.8°C 68% 6.0 mph W9.7 kmh W 9.0 mph14.5 kmh 29.93 in1013.5 mb 0.00 in0.0 mm 0.00 in/hr0.0 mm/hr 0.00 in0.0 mm
12:07 AM 54.3°F12.4°C 44.0°F6.7°C 68% 5.0 mph W8.0 kmh W 9.0 mph14.5 kmh 29.93 in1013.5 mb 0.00 in0.0 mm 0.00 in/hr0.0 mm/hr 0.00 in0.0 mm
12:06 AM 54.2°F12.3°C 44.3°F6.8°C 69% 5.0 mph WSW8.0 kmh WSW 9.0 mph14.5 kmh 29.93 in1013.5 mb 0.00 in0.0 mm 0.00 in/hr0.0 mm/hr 0.00 in0.0 mm
12:05 AM 54.0°F12.2°C 44.1°F6.7°C 69% 8.0 mph WNW12.9 kmh WNW 9.0 mph14.5 kmh 29.93 in1013.5 mb 0.00 in0.0 mm 0.00 in/hr0.0 mm/hr 0.00 in0.0 mm
12:04 AM 53.9°F12.2°C 44.0°F6.7°C 69% 4.0 mph NW6.4 kmh NW 8.0 mph12.9 kmh 29.93 in1013.5 mb 0.00 in0.0 mm 0.00 in/hr0.0 mm/hr 0.00 in0.0 mm
12:03 AM 53.8°F12.1°C 43.9°F6.6°C 69% 5.0 mph W8.0 kmh W 8.0 mph12.9 kmh 29.93 in1013.5 mb 0.00 in0.0 mm 0.00 in/hr0.0 mm/hr 0.00 in0.0 mm
12:02 AM 53.7°F12.1°C 43.8°F6.6°C 69% 4.0 mph SW6.4 kmh SW 5.0 mph8.0 kmh 29.93 in1013.5 mb 0.00 in0.0 mm 0.00 in/hr0.0 mm/hr 0.00 in0.0 mm
12:01 AM 53.6°F12.0°C 43.7°F6.5°C 69% 4.0 mph WSW6.4 kmh WSW 9.0 mph14.5 kmh 29.93 in1013.5 mb 0.00 in0.0 mm 0.00 in/hr0.0 mm/hr 0.00 in0.0 mm
12:00 AM 53.6°F12.0°C 43.7°F6.5°C 69% 3.0 mph WSW4.8 kmh WSW 9.0 mph14.5 kmh 29.93 in1013.5 mb 0.00 in0.0 mm 0.00 in/hr0.0 mm/hr 0.00 in0.0 mm